PORTS® Data Listing: 8465705 New Haven, CT

CO-OPS RAW PORTS DATA

************************      PRELIMINARY DATA      ************************** 

     THIS RAW DATA HAS NOT BEEN SUBJECT TO THE NATIONAL OCEAN SERVICE'S        
     QUALITY CONTROL OR QUALITY ASSURANCE PROCEDURES AND DOES NOT MEET         
     THE CRITERIA AND STANDARDS OF OFFICIAL NATIONAL OCEAN SERVICE             
     DATA.  IT IS RELEASED FOR LIMITED PUBLIC USE AS PRELIMINARY DATA TO       
     BE USED ONLY WITH APPROPRIATE CAUTION.                                    

************************      PRELIMINARY DATA      ************************** 


       CD   -   Calendar date
       T    -   Time
       TZ   -   Timezone
       PW   -   Predicted water level (feet above MLLW)
       OW   -   Observed water level (feet above MLLW)
       WS   -   Wind speed (knots)
       WD   -   Wind direction (degrees true)
       WG   -   Wind gust (knots)
       AT   -   Air temperature (degrees farenheit)
       WT   -   Water temperature (degrees farenheit)
       AP   -   Air pressure (millibars)
       SA   -   Salinty (PSU - Practical Salinity Units)
       SG   -   Specific gravity
       RH   -   Relative humidity
       AG   -   Air gap (feet)
       VI   -   Visibility (nautical miles)

       ** NOTE **
       A variable that has its data fields filled with "9"s, indicates that
       data was not collected for that sample period.
       **********


STATION NAME: New Haven (8465705)
****************************************************************************************************
    CD       T    TZ    PW     OW    WS   WD   WG    AT    WT    AP    SA    SG     RH    AG   VI
****************************************************************************************************
2019/12/11 14:18 EST    1.77   1.45    4  232    7  33.6  41.9 1023.6 -9.9 -9.999 -99.9 -99.99 -9.99
2019/12/11 14:24 EST    1.64   1.29    7  251   10  33.8  41.9 1023.7 -9.9 -9.999 -99.9 -99.99 -9.99
2019/12/11 14:30 EST    1.50   1.13    6  274    9  33.8  41.9 1023.8 -9.9 -9.999 -99.9 -99.99 -9.99
2019/12/11 14:36 EST    1.37   0.97    5  267    9  34.0  41.9 1023.7 -9.9 -9.999 -99.9 -99.99 -9.99
2019/12/11 14:42 EST    1.23   0.83    6  272    7  34.3  41.9 1023.6 -9.9 -9.999 -99.9 -99.99 -9.99
2019/12/11 14:48 EST    1.11   0.69    7  266    9  34.0  41.9 1023.5 -9.9 -9.999 -99.9 -99.99 -9.99
2019/12/11 14:54 EST    0.98   0.55    5  274    8  34.2  41.9 1023.7 -9.9 -9.999 -99.9 -99.99 -9.99
2019/12/11 15:00 EST    0.86 -99.99 -999 -999 -999 -99.9 -99.9 -999.9 -9.9 -9.999 -99.9 -99.99 -9.99
2019/12/11 15:06 EST    0.74   0.30    5  266    7  34.5  41.9 1023.6 -9.9 -9.999 -99.9 -99.99 -9.99
2019/12/11 15:12 EST    0.63   0.20    4  256    6  34.7  42.1 1023.6 -9.9 -9.999 -99.9 -99.99 -9.99
2019/12/11 15:18 EST    0.52   0.10    4  241    5  35.1  42.1 1023.8 -9.9 -9.999 -99.9 -99.99 -9.99
2019/12/11 15:24 EST    0.42  -0.03    5  249    6  35.4  42.3 1023.8 -9.9 -9.999 -99.9 -99.99 -9.99
2019/12/11 15:30 EST    0.32  -0.14    5  255    7  35.2  42.3 1023.9 -9.9 -9.999 -99.9 -99.99 -9.99
2019/12/11 15:36 EST    0.23  -0.23    5  255    7  35.1  42.3 1023.9 -9.9 -9.999 -99.9 -99.99 -9.99
2019/12/11 15:42 EST    0.14  -0.30    6  241    8  35.2  42.3 1024.1 -9.9 -9.999 -99.9 -99.99 -9.99
2019/12/11 15:48 EST    0.06  -0.37    7  248    9  34.9  42.3 1024.2 -9.9 -9.999 -99.9 -99.99 -9.99
2019/12/11 15:54 EST   -0.01  -0.43    6  245    7  34.5  42.1 1024.3 -9.9 -9.999 -99.9 -99.99 -9.99
2019/12/11 16:00 EST   -0.08  -0.45    5  251    8  34.9  42.1 1024.2 -9.9 -9.999 -99.9 -99.99 -9.99
2019/12/11 16:06 EST   -0.13  -0.49    6  246    7  34.3  42.1 1024.3 -9.9 -9.999 -99.9 -99.99 -9.99
2019/12/11 16:12 EST   -0.18  -0.53    5  257    7  34.7  42.1 1024.4 -9.9 -9.999 -99.9 -99.99 -9.99
2019/12/11 16:18 EST   -0.22  -0.58    6  255    7  34.7  42.1 1024.3 -9.9 -9.999 -99.9 -99.99 -9.99
2019/12/11 16:24 EST   -0.25  -0.64    6  260    7  34.7  42.1 1024.3 -9.9 -9.999 -99.9 -99.99 -9.99
2019/12/11 16:30 EST   -0.27  -0.67    6  260    7  34.7  41.9 1024.3 -9.9 -9.999 -99.9 -99.99 -9.99
2019/12/11 16:36 EST   -0.28  -0.71    6  270    8  34.7  41.9 1024.4 -9.9 -9.999 -99.9 -99.99 -9.99
2019/12/11 16:42 EST   -0.28  -0.71    5  267    7  34.7  41.9 1024.5 -9.9 -9.999 -99.9 -99.99 -9.99
2019/12/11 16:48 EST   -0.27  -0.69    6  279    8  34.9  41.9 1024.7 -9.9 -9.999 -99.9 -99.99 -9.99
2019/12/11 16:54 EST   -0.24  -0.64    6  280    7  34.7  41.9 1024.8 -9.9 -9.999 -99.9 -99.99 -9.99
2019/12/11 17:00 EST   -0.21  -0.55    7  286    9  34.7  41.9 1024.9 -9.9 -9.999 -99.9 -99.99 -9.99
2019/12/11 17:06 EST   -0.17  -0.45    7  290    8  34.7  41.9 1024.9 -9.9 -9.999 -99.9 -99.99 -9.99
2019/12/11 17:12 EST   -0.12  -0.35    7  286    9  34.5  41.9 1025.0 -9.9 -9.999 -99.9 -99.99 -9.99
2019/12/11 17:18 EST   -0.06  -0.25    6  288    8  34.5  41.9 1025.1 -9.9 -9.999 -99.9 -99.99 -9.99
2019/12/11 17:24 EST    0.01  -0.14    6  279    9  34.5  41.9 1025.2 -9.9 -9.999 -99.9 -99.99 -9.99
2019/12/11 17:30 EST    0.09  -0.03    6  276    8  34.7  41.9 1025.3 -9.9 -9.999 -99.9 -99.99 -9.99
2019/12/11 17:36 EST    0.18   0.07    6  273    8  34.5  41.9 1025.4 -9.9 -9.999 -99.9 -99.99 -9.99
2019/12/11 17:42 EST    0.27   0.20    6  263    8  34.3  41.9 1025.4 -9.9 -9.999 -99.9 -99.99 -9.99
2019/12/11 17:48 EST    0.38   0.33    5  252    8  34.3  41.9 1025.5 -9.9 -9.999 -99.9 -99.99 -9.99
2019/12/11 17:54 EST    0.49   0.46    7  259    8  34.3  41.9 1025.5 -9.9 -9.999 -99.9 -99.99 -9.99
2019/12/11 18:00 EST    0.61   0.60    7  259    9  34.3  41.9 1025.6 -9.9 -9.999 -99.9 -99.99 -9.99
2019/12/11 18:06 EST    0.73   0.75    7  256    9  34.3  41.9 1025.7 -9.9 -9.999 -99.9 -99.99 -9.99
2019/12/11 18:12 EST    0.86   0.91    8  262   10  34.5  42.1 1025.7 -9.9 -9.999 -99.9 -99.99 -9.99
2019/12/11 18:18 EST    0.99   1.08    8  258   10  34.5  42.1 1025.7 -9.9 -9.999 -99.9 -99.99 -9.99
2019/12/11 18:24 EST    1.13   1.20    8  260   10  34.7  42.1 1025.8 -9.9 -9.999 -99.9 -99.99 -9.99
2019/12/11 18:30 EST    1.27   1.33    7  259   10  34.7  42.1 1025.9 -9.9 -9.999 -99.9 -99.99 -9.99
2019/12/11 18:36 EST    1.41   1.44    8  255    9  34.7  42.1 1025.9 -9.9 -9.999 -99.9 -99.99 -9.99
2019/12/11 18:42 EST    1.56   1.55    8  251   10  34.7  42.1 1026.1 -9.9 -9.999 -99.9 -99.99 -9.99
2019/12/11 18:48 EST    1.71   1.68    9  257   10  34.7  42.1 1026.2 -9.9 -9.999 -99.9 -99.99 -9.99
2019/12/11 18:54 EST    1.86   1.80    9  254   11  35.1  42.1 1026.2 -9.9 -9.999 -99.9 -99.99 -9.99
2019/12/11 19:00 EST    2.01   2.00    9  261   11  35.1  42.1 1026.2 -9.9 -9.999 -99.9 -99.99 -9.99
2019/12/11 19:06 EST    2.16   2.19   10  271   11  35.1  42.1 1026.1 -9.9 -9.999 -99.9 -99.99 -9.99
2019/12/11 19:12 EST    2.31   2.38   11  273   15  34.9  42.1 1026.1 -9.9 -9.999 -99.9 -99.99 -9.99
2019/12/11 19:18 EST    2.46   2.57   11  272   14  34.9  42.1 1026.0 -9.9 -9.999 -99.9 -99.99 -9.99
2019/12/11 19:24 EST    2.61   2.78   11  272   13  35.1  42.1 1026.1 -9.9 -9.999 -99.9 -99.99 -9.99
2019/12/11 19:30 EST    2.76   2.95   13  273   15  35.2  42.1 1026.1 -9.9 -9.999 -99.9 -99.99 -9.99
2019/12/11 19:36 EST    2.90   3.13   13  278   16  35.1  42.1 1026.2 -9.9 -9.999 -99.9 -99.99 -9.99
2019/12/11 19:42 EST    3.05   3.27   12  279   15  34.9  42.1 1026.4 -9.9 -9.999 -99.9 -99.99 -9.99
2019/12/11 19:48 EST    3.19   3.38   12  278   15  34.9  41.9 1026.4 -9.9 -9.999 -99.9 -99.99 -9.99
2019/12/11 19:54 EST    3.33   3.47   11  276   14  34.9  41.9 1026.4 -9.9 -9.999 -99.9 -99.99 -9.99
2019/12/11 20:00 EST    3.47   3.57   12  279   15  34.9  41.9 1026.4 -9.9 -9.999 -99.9 -99.99 -9.99
2019/12/11 20:06 EST    3.61   3.65   13  277   16  34.7  42.1 1026.5 -9.9 -9.999 -99.9 -99.99 -9.99
2019/12/11 20:12 EST    3.75   3.74   12  279   16  34.5  42.1 1026.5 -9.9 -9.999 -99.9 -99.99 -9.99
2019/12/11 20:18 EST    3.88   3.83   11  280   14  34.5  42.1 1026.6 -9.9 -9.999 -99.9 -99.99 -9.99
2019/12/11 20:24 EST    4.01   3.92   10  287   13  34.3  42.1 1026.6 -9.9 -9.999 -99.9 -99.99 -9.99
2019/12/11 20:30 EST    4.14   4.02   10  289   13  34.3  42.1 1026.6 -9.9 -9.999 -99.9 -99.99 -9.99
2019/12/11 20:36 EST    4.27   4.13   10  290   13  34.0  42.1 1026.7 -9.9 -9.999 -99.9 -99.99 -9.99
2019/12/11 20:42 EST    4.39   4.28   10  288   13  34.0  42.1 1026.7 -9.9 -9.999 -99.9 -99.99 -9.99
2019/12/11 20:48 EST    4.51   4.40   10  294   16  33.8  42.1 1026.8 -9.9 -9.999 -99.9 -99.99 -9.99
2019/12/11 20:54 EST    4.63   4.53   10  294   16  33.8  42.1 1026.9 -9.9 -9.999 -99.9 -99.99 -9.99
2019/12/11 21:00 EST    4.74   4.68   11  301   13  33.8  42.1 1026.9 -9.9 -9.999 -99.9 -99.99 -9.99
2019/12/11 21:06 EST    4.86   4.81   11  297   13  34.0  42.1 1027.0 -9.9 -9.999 -99.9 -99.99 -9.99
2019/12/11 21:12 EST    4.96   4.93    9  294   13  33.8  42.1 1026.9 -9.9 -9.999 -99.9 -99.99 -9.99
2019/12/11 21:18 EST    5.07   5.07   10  294   12  33.8  42.1 1027.0 -9.9 -9.999 -99.9 -99.99 -9.99
2019/12/11 21:24 EST    5.17   5.14   10  294   13  33.6  42.1 1027.1 -9.9 -9.999 -99.9 -99.99 -9.99
2019/12/11 21:30 EST    5.26   5.19   11  294   16  33.4  42.1 1027.2 -9.9 -9.999 -99.9 -99.99 -9.99
2019/12/11 21:36 EST    5.36   5.25   11  298   13  33.4  42.3 1027.3 -9.9 -9.999 -99.9 -99.99 -9.99
2019/12/11 21:42 EST    5.44   5.28   10  295   13  33.3  42.3 1027.4 -9.9 -9.999 -99.9 -99.99 -9.99
2019/12/11 21:48 EST    5.52   5.32    9  299   11  33.1  42.3 1027.7 -9.9 -9.999 -99.9 -99.99 -9.99
2019/12/11 21:54 EST    5.59   5.38    9  302   11  33.1  42.3 1027.7 -9.9 -9.999 -99.9 -99.99 -9.99
2019/12/11 22:00 EST    5.66   5.44    8  300   11  32.9  42.3 1027.8 -9.9 -9.999 -99.9 -99.99 -9.99
2019/12/11 22:06 EST    5.72   5.48    9  300   11  32.7  42.3 1028.0 -9.9 -9.999 -99.9 -99.99 -9.99
2019/12/11 22:12 EST    5.77   5.53    9  311   13  32.7  42.3 1028.2 -9.9 -9.999 -99.9 -99.99 -9.99
2019/12/11 22:18 EST    5.82   5.56    9  303   13  32.7  42.3 1028.3 -9.9 -9.999 -99.9 -99.99 -9.99
2019/12/11 22:24 EST    5.86   5.58   10  306   15  32.5  42.3 1028.5 -9.9 -9.999 -99.9 -99.99 -9.99
2019/12/11 22:30 EST    5.88   5.58    7  306   12  32.4  42.3 1028.7 -9.9 -9.999 -99.9 -99.99 -9.99
2019/12/11 22:36 EST    5.90   5.57    8  301   11  32.4  42.3 1028.7 -9.9 -9.999 -99.9 -99.99 -9.99
2019/12/11 22:42 EST    5.91   5.51   11  304   13  32.2  42.3 1028.8 -9.9 -9.999 -99.9 -99.99 -9.99
2019/12/11 22:48 EST    5.91   5.46   11  303   14  32.2  42.3 1028.9 -9.9 -9.999 -99.9 -99.99 -9.99
2019/12/11 22:54 EST    5.90   5.40    9  301   14  32.2  42.3 1029.1 -9.9 -9.999 -99.9 -99.99 -9.99
2019/12/11 23:00 EST    5.88   5.36    9  296   12  32.2  42.3 1029.4 -9.9 -9.999 -99.9 -99.99 -9.99
2019/12/11 23:06 EST    5.86   5.32   11  299   13  32.2  42.3 1029.4 -9.9 -9.999 -99.9 -99.99 -9.99
2019/12/11 23:12 EST    5.82   5.30    9  303   12  31.8  42.3 1029.4 -9.9 -9.999 -99.9 -99.99 -9.99
2019/12/11 23:18 EST    5.77   5.23    9  310   11  31.6  42.3 1029.5 -9.9 -9.999 -99.9 -99.99 -9.99
2019/12/11 23:24 EST    5.71   5.16    7  303   10  31.6  42.3 1029.7 -9.9 -9.999 -99.9 -99.99 -9.99
2019/12/11 23:30 EST    5.65   5.07    9  304   11  31.8  42.3 1029.9 -9.9 -9.999 -99.9 -99.99 -9.99
2019/12/11 23:36 EST    5.57   4.93    7  304   11  31.8  42.3 1029.9 -9.9 -9.999 -99.9 -99.99 -9.99
2019/12/11 23:42 EST    5.49   4.78    8  322   12  31.6  42.3 1030.1 -9.9 -9.999 -99.9 -99.99 -9.99
2019/12/11 23:48 EST    5.39   4.62    8  303   10  31.6  42.3 1030.1 -9.9 -9.999 -99.9 -99.99 -9.99
2019/12/11 23:54 EST    5.29   4.49    8  301   11  31.6  42.3 1030.3 -9.9 -9.999 -99.9 -99.99 -9.99
2019/12/12 00:00 EST    5.19   4.34    9  317   12  31.6  42.3 1030.3 -9.9 -9.999 -99.9 -99.99 -9.99
2019/12/12 00:06 EST    5.07   4.23   11  320   15  31.3  42.3 1030.4 -9.9 -9.999 -99.9 -99.99 -9.99
2019/12/12 00:12 EST    4.95   4.11   13  319   18  31.5  42.3 1030.6 -9.9 -9.999 -99.9 -99.99 -9.99
2019/12/12 00:18 EST    4.83   3.98    7  308   13  31.5  42.3 1030.8 -9.9 -9.999 -99.9 -99.99 -9.99
2019/12/12 00:24 EST    4.70   3.84    7  320   10  31.6  42.3 1030.9 -9.9 -9.999 -99.9 -99.99 -9.99
2019/12/12 00:30 EST    4.56   3.68   10  327   14  31.3  42.3 1030.9 -9.9 -9.999 -99.9 -99.99 -9.99
2019/12/12 00:36 EST    4.43   3.58   14  326   18  31.5  42.3 1031.1 -9.9 -9.999 -99.9 -99.99 -9.99
2019/12/12 00:42 EST    4.29   3.43   20  328   26  31.6  42.3 1031.1 -9.9 -9.999 -99.9 -99.99 -9.99
2019/12/12 00:48 EST    4.14   3.26   24  333   29  31.6  42.3 1030.9 -9.9 -9.999 -99.9 -99.99 -9.99
2019/12/12 00:54 EST    4.00   3.11   20  331   24  31.6  42.3 1031.1 -9.9 -9.999 -99.9 -99.99 -9.99
2019/12/12 01:00 EST    3.85   2.93   17  330   20  31.5  42.3 1031.7 -9.9 -9.999 -99.9 -99.99 -9.99
2019/12/12 01:06 EST    3.71   2.76   14  332   17  31.3  42.3 1032.1 -9.9 -9.999 -99.9 -99.99 -9.99
2019/12/12 01:12 EST    3.56   2.61   13  329   17  31.1  42.3 1032.5 -9.9 -9.999 -99.9 -99.99 -9.99
2019/12/12 01:18 EST    3.42   2.45    9  333   14  30.7  42.3 1032.7 -9.9 -9.999 -99.9 -99.99 -9.99
2019/12/12 01:24 EST    3.27   2.29    7  349   12  30.9  42.3 1032.9 -9.9 -9.999 -99.9 -99.99 -9.99
2019/12/12 01:30 EST    3.13   2.12    7  348   12  30.6  42.3 1032.9 -9.9 -9.999 -99.9 -99.99 -9.99
2019/12/12 01:36 EST    2.99   1.94    4    1   11  30.4  42.3 1033.0 -9.9 -9.999 -99.9 -99.99 -9.99
2019/12/12 01:42 EST    2.84   1.79    8  336   12  30.4  42.3 1033.1 -9.9 -9.999 -99.9 -99.99 -9.99
2019/12/12 01:48 EST    2.71   1.64    8  349   12  30.2  42.3 1033.2 -9.9 -9.999 -99.9 -99.99 -9.99
2019/12/12 01:54 EST    2.57   1.53   10  341   13  30.0  42.4 1033.2 -9.9 -9.999 -99.9 -99.99 -9.99
2019/12/12 02:00 EST    2.43   1.44   10  336   12  30.0  42.4 1033.3 -9.9 -9.999 -99.9 -99.99 -9.99
2019/12/12 02:06 EST    2.30   1.39   12  338   14  29.8  42.4 1033.5 -9.9 -9.999 -99.9 -99.99 -9.99
2019/12/12 02:12 EST    2.17   1.31    8  348   14  29.7  42.4 1033.6 -9.9 -9.999 -99.9 -99.99 -9.99
2019/12/12 02:18 EST    2.05   1.23    9  342   13  29.5  42.4 1033.8 -9.9 -9.999 -99.9 -99.99 -9.99
2019/12/12 02:24 EST    1.92   1.12    6  343   11  29.3  42.3 1033.8 -9.9 -9.999 -99.9 -99.99 -9.99
2019/12/12 02:30 EST    1.80   0.99   10  332   12  29.3  42.3 1033.9 -9.9 -9.999 -99.9 -99.99 -9.99
2019/12/12 02:36 EST    1.69   0.85    9  331   12  28.9  42.3 1034.1 -9.9 -9.999 -99.9 -99.99 -9.99
2019/12/12 02:42 EST    1.57   0.71    9  320   11  29.1  42.3 1034.3 -9.9 -9.999 -99.9 -99.99 -9.99
2019/12/12 02:48 EST    1.46   0.54    9  321   11  28.6  42.3 1034.4 -9.9 -9.999 -99.9 -99.99 -9.99
2019/12/12 02:54 EST    1.35   0.39    9  326   11  28.4  42.3 1034.5 -9.9 -9.999 -99.9 -99.99 -9.99
2019/12/12 03:00 EST    1.24   0.26   10  321   11  28.2  42.3 1034.7 -9.9 -9.999 -99.9 -99.99 -9.99
2019/12/12 03:06 EST    1.14   0.14   11  326   13  28.2  42.3 1034.8 -9.9 -9.999 -99.9 -99.99 -9.99
2019/12/12 03:12 EST    1.05   0.05   10  334   12  28.2  42.3 1034.9 -9.9 -9.999 -99.9 -99.99 -9.99
2019/12/12 03:18 EST    0.95  -0.06   11  337   14  28.2  42.3 1035.1 -9.9 -9.999 -99.9 -99.99 -9.99
2019/12/12 03:24 EST    0.86  -0.14    9  333   13  28.2  42.3 1035.3 -9.9 -9.999 -99.9 -99.99 -9.99
2019/12/12 03:30 EST    0.78  -0.20    8  319   11  28.2  42.3 1035.5 -9.9 -9.999 -99.9 -99.99 -9.99
2019/12/12 03:36 EST    0.69  -0.26    7  314   10  27.9  42.3 1035.8 -9.9 -9.999 -99.9 -99.99 -9.99
2019/12/12 03:42 EST    0.62  -0.32    8  321   10  27.5  42.1 1035.8 -9.9 -9.999 -99.9 -99.99 -9.99
2019/12/12 03:48 EST    0.55  -0.41    8  327    9  27.5  42.1 1035.8 -9.9 -9.999 -99.9 -99.99 -9.99
2019/12/12 03:54 EST    0.48  -0.48    7  320   10  27.3  41.9 1035.6 -9.9 -9.999 -99.9 -99.99 -9.99
2019/12/12 04:00 EST    0.43  -0.54    9  318   10  27.3  41.9 1035.6 -9.9 -9.999 -99.9 -99.99 -9.99
2019/12/12 04:06 EST    0.37  -0.60    9  315   11  27.0  41.9 1035.7 -9.9 -9.999 -99.9 -99.99 -9.99
2019/12/12 04:12 EST    0.33  -0.65    8  314   11  27.1  41.9 1035.8 -9.9 -9.999 -99.9 -99.99 -9.99
2019/12/12 04:18 EST    0.29  -0.69    8  315   10  27.1  41.9 1035.9 -9.9 -9.999 -99.9 -99.99 -9.99
2019/12/12 04:24 EST    0.26  -0.72    8  320   10  26.8  41.7 1036.2 -9.9 -9.999 -99.9 -99.99 -9.99
2019/12/12 04:30 EST    0.24  -0.70    8  322   10  26.4  41.7 1036.3 -9.9 -9.999 -99.9 -99.99 -9.99
2019/12/12 04:36 EST    0.23  -0.69    8  322    9  26.6  41.7 1036.4 -9.9 -9.999 -99.9 -99.99 -9.99
2019/12/12 04:42 EST    0.23  -0.69    9  327   11  26.6  41.7 1036.5 -9.9 -9.999 -99.9 -99.99 -9.99
2019/12/12 04:48 EST    0.23  -0.66    7  329   10  26.4  41.7 1036.4 -9.9 -9.999 -99.9 -99.99 -9.99
2019/12/12 04:54 EST    0.25  -0.63    6  319    8  26.2  41.7 1036.5 -9.9 -9.999 -99.9 -99.99 -9.99
2019/12/12 05:00 EST    0.28  -0.61    5  314    7  26.2  41.5 1036.8 -9.9 -9.999 -99.9 -99.99 -9.99
2019/12/12 05:06 EST    0.31  -0.55    5  323    6  25.9  41.5 1037.0 -9.9 -9.999 -99.9 -99.99 -9.99
2019/12/12 05:12 EST    0.36  -0.48    4  316    5  25.9  41.5 1036.9 -9.9 -9.999 -99.9 -99.99 -9.99
2019/12/12 05:18 EST    0.41  -0.41    6  317    8  25.9  41.5 1037.0 -9.9 -9.999 -99.9 -99.99 -9.99
2019/12/12 05:24 EST    0.48  -0.34    6  308    8  25.7  41.5 1037.1 -9.9 -9.999 -99.9 -99.99 -9.99
2019/12/12 05:30 EST    0.55  -0.26    7  311    8  25.7  41.7 1037.3 -9.9 -9.999 -99.9 -99.99 -9.99
2019/12/12 05:36 EST    0.63  -0.16    6  306    8  25.5  41.7 1037.3 -9.9 -9.999 -99.9 -99.99 -9.99
2019/12/12 05:42 EST    0.73  -0.04    6  303    8  25.7  41.9 1037.2 -9.9 -9.999 -99.9 -99.99 -9.99
2019/12/12 05:48 EST    0.83   0.09    6  301    8  25.7  41.9 1037.5 -9.9 -9.999 -99.9 -99.99 -9.99
2019/12/12 05:54 EST    0.94   0.24    7  298    9  25.7  41.9 1037.7 -9.9 -9.999 -99.9 -99.99 -9.99
2019/12/12 06:00 EST    1.06   0.39    8  304   10  25.3  41.9 1037.8 -9.9 -9.999 -99.9 -99.99 -9.99
2019/12/12 06:06 EST    1.19   0.52    8  310   10  25.3  42.1 1037.9 -9.9 -9.999 -99.9 -99.99 -9.99
2019/12/12 06:12 EST    1.32   0.64    7  320   10  25.2  42.1 1037.9 -9.9 -9.999 -99.9 -99.99 -9.99
2019/12/12 06:18 EST    1.46   0.77    8  333    9  25.0  42.1 1037.9 -9.9 -9.999 -99.9 -99.99 -9.99
2019/12/12 06:24 EST    1.61   0.90    5  338    8  25.0  42.1 1038.0 -9.9 -9.999 -99.9 -99.99 -9.99
2019/12/12 06:30 EST    1.76   1.03    5  338    8  24.8  42.1 1038.2 -9.9 -9.999 -99.9 -99.99 -9.99
2019/12/12 06:36 EST    1.91   1.16    6  344    9  25.0  42.1 1038.3 -9.9 -9.999 -99.9 -99.99 -9.99
2019/12/12 06:42 EST    2.07   1.30    7  332    9  25.0  42.1 1038.5 -9.9 -9.999 -99.9 -99.99 -9.99
2019/12/12 06:48 EST    2.23   1.46    7  329    9  25.0  42.1 1038.7 -9.9 -9.999 -99.9 -99.99 -9.99
2019/12/12 06:54 EST    2.40   1.63    6  319    9  24.8  42.1 1038.8 -9.9 -9.999 -99.9 -99.99 -9.99
2019/12/12 07:00 EST    2.56   1.80    4  326    7  24.4  42.1 1038.8 -9.9 -9.999 -99.9 -99.99 -9.99
2019/12/12 07:06 EST    2.73   1.98    2  343    5  24.3  42.3 1038.9 -9.9 -9.999 -99.9 -99.99 -9.99
2019/12/12 07:12 EST    2.90   2.17    2  324    4  24.3  42.3 1038.9 -9.9 -9.999 -99.9 -99.99 -9.99
2019/12/12 07:18 EST    3.06   2.35    3  324    4  24.3  42.3 1039.0 -9.9 -9.999 -99.9 -99.99 -9.99
2019/12/12 07:24 EST    3.23   2.51    1  308    4  24.3  42.3 1039.1 -9.9 -9.999 -99.9 -99.99 -9.99
2019/12/12 07:30 EST    3.40   2.65    0  325    1  24.8  42.3 1039.1 -9.9 -9.999 -99.9 -99.99 -9.99
2019/12/12 07:36 EST    3.56   2.78    0  356    1  25.7  42.3 1039.3 -9.9 -9.999 -99.9 -99.99 -9.99
2019/12/12 07:42 EST    3.72   2.91    1  254    3  27.9  42.3 1039.4 -9.9 -9.999 -99.9 -99.99 -9.99
2019/12/12 07:48 EST    3.88   3.05    2  304    3  26.4  42.3 1039.5 -9.9 -9.999 -99.9 -99.99 -9.99
2019/12/12 07:54 EST    4.04   3.20    1  316    4  25.9  42.3 1039.5 -9.9 -9.999 -99.9 -99.99 -9.99
2019/12/12 08:00 EST    4.19   3.36    0  312    2  26.2  42.3 1039.6 -9.9 -9.999 -99.9 -99.99 -9.99
2019/12/12 08:06 EST    4.35   3.54    3  287    5  27.3  42.3 1039.6 -9.9 -9.999 -99.9 -99.99 -9.99
2019/12/12 08:12 EST    4.50   3.72    4  304    6  26.1  42.1 1039.7 -9.9 -9.999 -99.9 -99.99 -9.99
2019/12/12 08:18 EST    4.64   3.89    4  300    5  25.3  42.1 1039.6 -9.9 -9.999 -99.9 -99.99 -9.99
2019/12/12 08:24 EST    4.78   4.03    6  303    7  25.3  42.1 1039.7 -9.9 -9.999 -99.9 -99.99 -9.99
2019/12/12 08:30 EST    4.92   4.15    5  312    7  25.7  42.1 1039.6 -9.9 -9.999 -99.9 -99.99 -9.99
2019/12/12 08:36 EST    5.06   4.26    6  317    7  25.9  42.3 1039.7 -9.9 -9.999 -99.9 -99.99 -9.99
2019/12/12 08:42 EST    5.19   4.37    6  317    7  26.1  42.3 1039.8 -9.9 -9.999 -99.9 -99.99 -9.99
2019/12/12 08:48 EST    5.31   4.49    3  359    7  27.1  42.3 1039.9 -9.9 -9.999 -99.9 -99.99 -9.99
2019/12/12 08:54 EST    5.44   4.62    7  339    9  27.0  42.3 1040.0 -9.9 -9.999 -99.9 -99.99 -9.99
2019/12/12 09:00 EST    5.56   4.76    5  328    9  26.8  42.3 1040.0 -9.9 -9.999 -99.9 -99.99 -9.99
2019/12/12 09:06 EST    5.67   4.91    1    6    5  26.8  42.3 1040.1 -9.9 -9.999 -99.9 -99.99 -9.99
2019/12/12 09:12 EST    5.79   5.05    4  350    7  27.5  42.3 1040.0 -9.9 -9.999 -99.9 -99.99 -9.99
2019/12/12 09:18 EST    5.90   5.17    7  337    9  27.5  42.4 1040.1 -9.9 -9.999 -99.9 -99.99 -9.99
2019/12/12 09:24 EST    6.00   5.30    5  345    9  27.0  42.4 1040.2 -9.9 -9.999 -99.9 -99.99 -9.99
2019/12/12 09:30 EST    6.10   5.44    5  345    9  27.5  42.4 1040.1 -9.9 -9.999 -99.9 -99.99 -9.99
2019/12/12 09:36 EST    6.19   5.57    6  345    9  27.5  42.3 1040.1 -9.9 -9.999 -99.9 -99.99 -9.99
2019/12/12 09:42 EST    6.28   5.69    6  344    9  27.9  42.3 1040.2 -9.9 -9.999 -99.9 -99.99 -9.99
2019/12/12 09:48 EST    6.37   5.79    6  345   10  27.9  42.3 1040.2 -9.9 -9.999 -99.9 -99.99 -9.99
2019/12/12 09:54 EST    6.45   5.89    4  350    8  28.0  42.3 1040.3 -9.9 -9.999 -99.9 -99.99 -9.99
2019/12/12 10:00 EST    6.52   5.99    4  348    8  28.0  42.3 1040.3 -9.9 -9.999 -99.9 -99.99 -9.99
2019/12/12 10:06 EST    6.59   6.07    2  349    7  28.6  42.3 1040.4 -9.9 -9.999 -99.9 -99.99 -9.99
2019/12/12 10:12 EST    6.65   6.13    2  333    5  28.9  42.3 1040.4 -9.9 -9.999 -99.9 -99.99 -9.99
2019/12/12 10:18 EST    6.71   6.18    1  306    6  28.9  42.4 1040.4 -9.9 -9.999 -99.9 -99.99 -9.99
2019/12/12 10:24 EST    6.75   6.22    4  342    7  29.7  42.4 1040.3 -9.9 -9.999 -99.9 -99.99 -9.99
2019/12/12 10:30 EST    6.79   6.25    2  331    5  29.5  42.4 1040.3 -9.9 -9.999 -99.9 -99.99 -9.99
2019/12/12 10:36 EST    6.82   6.28    3    1    9  29.8  42.4 1040.4 -9.9 -9.999 -99.9 -99.99 -9.99
2019/12/12 10:42 EST    6.85   6.32    2  351    6  29.8  42.4 1040.3 -9.9 -9.999 -99.9 -99.99 -9.99
2019/12/12 10:48 EST    6.86   6.35    2   14    8  30.2  42.4 1040.2 -9.9 -9.999 -99.9 -99.99 -9.99
2019/12/12 10:54 EST    6.87   6.38    4    4    7  30.4  42.4 1040.2 -9.9 -9.999 -99.9 -99.99 -9.99
2019/12/12 11:00 EST    6.87   6.41    3    3   10  30.2  42.4 1040.0 -9.9 -9.999 -99.9 -99.99 -9.99
2019/12/12 11:06 EST    6.85   6.41    2    5    9  30.6  42.6 1039.9 -9.9 -9.999 -99.9 -99.99 -9.99
2019/12/12 11:12 EST    6.83   6.41    2   33    8  30.6  42.6 1039.8 -9.9 -9.999 -99.9 -99.99 -9.99
2019/12/12 11:18 EST    6.80   6.38    5  352   10  30.7  42.6 1039.7 -9.9 -9.999 -99.9 -99.99 -9.99
2019/12/12 11:24 EST    6.75   6.32    3   10    9  30.7  42.6 1039.7 -9.9 -9.999 -99.9 -99.99 -9.99
2019/12/12 11:30 EST    6.70   6.24    2  351    6  30.9  42.6 1039.8 -9.9 -9.999 -99.9 -99.99 -9.99
2019/12/12 11:36 EST    6.64   6.16    4   10    8  31.3  42.6 1039.7 -9.9 -9.999 -99.9 -99.99 -9.99
2019/12/12 11:42 EST    6.57   6.05    6  347   10  31.5  42.6 1039.7 -9.9 -9.999 -99.9 -99.99 -9.99
2019/12/12 11:48 EST    6.49   5.94    5  341   10  31.1  42.6 1039.4 -9.9 -9.999 -99.9 -99.99 -9.99
2019/12/12 11:54 EST    6.40   5.85    5  341   10  31.1  42.6 1039.4 -9.9 -9.999 -99.9 -99.99 -9.99
2019/12/12 12:00 EST    6.30   5.76    4  355    8  31.6  42.6 1039.2 -9.9 -9.999 -99.9 -99.99 -9.99
2019/12/12 12:06 EST    6.19   5.67    4    2    8  31.8  42.8 1039.1 -9.9 -9.999 -99.9 -99.99 -9.99
2019/12/12 12:12 EST    6.07   5.58    3   16    7  31.8  42.8 1039.0 -9.9 -9.999 -99.9 -99.99 -9.99
2019/12/12 12:18 EST    5.95   5.50    5  352    9  31.8  42.8 1039.0 -9.9 -9.999 -99.9 -99.99 -9.99
2019/12/12 12:24 EST    5.81   5.39    2  331    8  32.2  42.8 1038.9 -9.9 -9.999 -99.9 -99.99 -9.99
2019/12/12 12:30 EST    5.68   5.25    3    8    6  32.4  42.8 1038.8 -9.9 -9.999 -99.9 -99.99 -9.99
2019/12/12 12:36 EST    5.53   5.09    4    7    7  32.2  42.8 1038.8 -9.9 -9.999 -99.9 -99.99 -9.99
2019/12/12 12:42 EST    5.38   4.94    5  356   10  31.8  42.8 1038.9 -9.9 -9.999 -99.9 -99.99 -9.99
2019/12/12 12:48 EST    5.23   4.76    2  357    9  32.4  42.8 1039.0 -9.9 -9.999 -99.9 -99.99 -9.99
2019/12/12 12:54 EST    5.07   4.60    3   16    9  32.5  42.8 1038.9 -9.9 -9.999 -99.9 -99.99 -9.99
2019/12/12 13:00 EST    4.91   4.44    3   36    7  32.7  42.8 1038.8 -9.9 -9.999 -99.9 -99.99 -9.99
2019/12/12 13:06 EST    4.74   4.30    2    7    6  32.9  42.8 1038.8 -9.9 -9.999 -99.9 -99.99 -9.99
2019/12/12 13:12 EST    4.57   4.15    3    2    7  32.9  42.8 1038.8 -9.9 -9.999 -99.9 -99.99 -9.99
2019/12/12 13:18 EST    4.40   4.04    7  347   11  32.7  42.8 1038.6 -9.9 -9.999 -99.9 -99.99 -9.99
2019/12/12 13:24 EST    4.23   3.92    4    3   10  32.9  42.8 1038.5 -9.9 -9.999 -99.9 -99.99 -9.99
2019/12/12 13:30 EST    4.06   3.80    2    0    6  33.4  42.8 1038.5 -9.9 -9.999 -99.9 -99.99 -9.99
2019/12/12 13:36 EST    3.89   3.65    3    3    6  33.4  42.8 1038.5 -9.9 -9.999 -99.9 -99.99 -9.99
2019/12/12 13:42 EST    3.72   3.50    3   14    7  33.3  42.8 1038.6 -9.9 -9.999 -99.9 -99.99 -9.99
2019/12/12 13:48 EST    3.55   3.35    2   40    6  33.6  42.6 1038.5 -9.9 -9.999 -99.9 -99.99 -9.99
2019/12/12 13:54 EST    3.38   3.15    1  353    5  33.8  42.6 1038.4 -9.9 -9.999 -99.9 -99.99 -9.99
2019/12/12 14:00 EST    3.21   2.98    3  344    6  33.4  42.6 1038.4 -9.9 -9.999 -99.9 -99.99 -9.99
2019/12/12 14:06 EST    3.05   2.83    2    5    5  34.0  42.6 1038.6 -9.9 -9.999 -99.9 -99.99 -9.99
2019/12/12 14:12 EST    2.88   2.68    3   28    5  34.0  42.6 1038.7 -9.9 -9.999 -99.9 -99.99 -9.99
2019/12/12 14:18 EST    2.72   2.55    1  102    4  33.4  42.6 1038.6 -9.9 -9.999 -99.9 -99.99 -9.99
2019/12/12 14:24 EST    2.56   2.40    1  164    2  33.3  42.6 1038.7 -9.9 -9.999 -99.9 -99.99 -9.99
2019/12/12 14:30 EST    2.41   2.27    1  185    2  33.4  42.6 1038.8 -9.9 -9.999 -99.9 -99.99 -9.99
2019/12/12 14:36 EST    2.25   2.14    1  285    2  33.4  42.6 1038.8 -9.9 -9.999 -99.9 -99.99 -9.99
2019/12/12 14:42 EST    2.10   2.01    1  274    3  33.3  42.6 1038.8 -9.9 -9.999 -99.9 -99.99 -9.99
2019/12/12 14:48 EST    1.95   1.88    1  214    2  34.5  42.6 1038.8 -9.9 -9.999 -99.9 -99.99 -9.99
2019/12/12 14:54 EST    1.81   1.75    0  241    2  35.4  42.6 1038.7 -9.9 -9.999 -99.9 -99.99 -9.99
2019/12/12 15:00 EST    1.66   1.61    1  283    2  35.1  42.6 1038.8 -9.9 -9.999 -99.9 -99.99 -9.99
2019/12/12 15:06 EST    1.52   1.48    0  182    2  36.0  42.6 1038.7 -9.9 -9.999 -99.9 -99.99 -9.99
2019/12/12 15:12 EST    1.39   1.35    1  220    2  36.7  42.6 1038.7 -9.9 -9.999 -99.9 -99.99 -9.99
2019/12/12 15:18 EST    1.25   1.22    2  251    3  33.6  42.6 1038.7 -9.9 -9.999 -99.9 -99.99 -9.99
2019/12/12 15:24 EST    1.12   1.07    2  223    4  33.6  42.6 1038.7 -9.9 -9.999 -99.9 -99.99 -9.99
2019/12/12 15:30 EST    0.99   0.92    3  224    5  33.8  42.4 1038.7 -9.9 -9.999 -99.9 -99.99 -9.99
2019/12/12 15:36 EST    0.87   0.77    2  212    5  34.5  42.4 1038.8 -9.9 -9.999 -99.9 -99.99 -9.99
2019/12/12 15:42 EST    0.75   0.64    2  217    4  34.3  42.4 1038.8 -9.9 -9.999 -99.9 -99.99 -9.99
2019/12/12 15:48 EST    0.63   0.51    3  212    5  34.7  42.4 1038.8 -9.9 -9.999 -99.9 -99.99 -9.99
2019/12/12 15:54 EST    0.52   0.40    3  185    4  34.2  42.3 1038.7 -9.9 -9.999 -99.9 -99.99 -9.99
2019/12/12 16:00 EST    0.41   0.26    4  190    5  33.4  42.3 1038.8 -9.9 -9.999 -99.9 -99.99 -9.99
2019/12/12 16:06 EST    0.31   0.14    4  172    5  32.9  42.3 1038.8 -9.9 -9.999 -99.9 -99.99 -9.99
2019/12/12 16:12 EST    0.22   0.04    4  198    5  33.1  42.3 1038.8 -9.9 -9.999 -99.9 -99.99 -9.99
2019/12/12 16:18 EST    0.12  -0.05    5  168    5  32.5  42.3 1038.9 -9.9 -9.999 -99.9 -99.99 -9.99
2019/12/12 16:24 EST    0.04  -0.13    5  167    6  32.5  42.3 1038.9 -9.9 -9.999 -99.9 -99.99 -9.99
2019/12/12 16:30 EST   -0.04  -0.20    4  148    5  32.0  42.3 1039.0 -9.9 -9.999 -99.9 -99.99 -9.99
2019/12/12 16:36 EST   -0.11  -0.27    4  141    5  31.8  42.3 1038.9 -9.9 -9.999 -99.9 -99.99 -9.99
2019/12/12 16:42 EST   -0.17  -0.33    3  141    5  31.6  42.3 1039.0 -9.9 -9.999 -99.9 -99.99 -9.99
2019/12/12 16:48 EST   -0.23  -0.39    4  145    5  31.6  42.3 1039.0 -9.9 -9.999 -99.9 -99.99 -9.99
2019/12/12 16:54 EST   -0.28  -0.46    4  138    5  31.6  42.3 1039.1 -9.9 -9.999 -99.9 -99.99 -9.99
2019/12/12 17:00 EST   -0.31  -0.50    3  141    4  31.6  42.3 1039.3 -9.9 -9.999 -99.9 -99.99 -9.99
2019/12/12 17:06 EST   -0.34  -0.55    4  143    4  31.6  42.3 1039.3 -9.9 -9.999 -99.9 -99.99 -9.99
2019/12/12 17:12 EST   -0.36  -0.57    3  154    4  31.5  42.3 1039.3 -9.9 -9.999 -99.9 -99.99 -9.99
2019/12/12 17:18 EST   -0.37  -0.57    3  153    4  31.6  42.3 1039.4 -9.9 -9.999 -99.9 -99.99 -9.99
2019/12/12 17:24 EST   -0.37  -0.55    3  148    3  31.8  42.3 1039.4 -9.9 -9.999 -99.9 -99.99 -9.99
2019/12/12 17:30 EST   -0.36  -0.50    3  183    4  32.0  42.1 1039.5 -9.9 -9.999 -99.9 -99.99 -9.99
2019/12/12 17:36 EST   -0.34  -0.51    3  216    4  32.2  41.7 1039.5 -9.9 -9.999 -99.9 -99.99 -9.99
2019/12/12 17:42 EST   -0.31  -0.44    2  174    5  32.2  41.5 1039.5 -9.9 -9.999 -99.9 -99.99 -9.99
2019/12/12 17:48 EST   -0.27  -0.39    3  201    5  32.5  41.2 1039.4 -9.9 -9.999 -99.9 -99.99 -9.99
2019/12/12 17:54 EST   -0.22  -0.34    3  205    4  32.7  41.2 1039.4 -9.9 -9.999 -99.9 -99.99 -9.99
2019/12/12 18:00 EST   -0.16  -0.23    3  169    4  31.8  41.0 1039.4 -9.9 -9.999 -99.9 -99.99 -9.99
2019/12/12 18:06 EST   -0.09  -0.13    3  149    3  31.8  41.0 1039.4 -9.9 -9.999 -99.9 -99.99 -9.99
2019/12/12 18:12 EST   -0.01  -0.04    2  158    4  31.8  41.2 1039.4 -9.9 -9.999 -99.9 -99.99 -9.99
2019/12/12 18:18 EST    0.08   0.07    3  151    4  31.8  41.4 1039.4 -9.9 -9.999 -99.9 -99.99 -9.99
2019/12/12 18:24 EST    0.18   0.18    2  150    4  31.8  41.5 1039.3 -9.9 -9.999 -99.9 -99.99 -9.99
2019/12/12 18:30 EST    0.29   0.31    2  165    4  32.0  41.7 1039.3 -9.9 -9.999 -99.9 -99.99 -9.99
2019/12/12 18:36 EST    0.40   0.42    1  197    3  32.2  41.9 1039.3 -9.9 -9.999 -99.9 -99.99 -9.99
2019/12/12 18:42 EST    0.52   0.55    1  161    2  31.6  41.9 1039.3 -9.9 -9.999 -99.9 -99.99 -9.99
2019/12/12 18:48 EST    0.65   0.68    1  179    2  31.6  41.9 1039.3 -9.9 -9.999 -99.9 -99.99 -9.99
2019/12/12 18:54 EST    0.78   0.84    1  285    3  32.4  41.9 1039.0 -9.9 -9.999 -99.9 -99.99 -9.99
2019/12/12 19:00 EST    0.92   0.99    2  298    2  32.4  41.9 1039.2 -9.9 -9.999 -99.9 -99.99 -9.99
2019/12/12 19:06 EST    1.07   1.14    3  292    4  32.2  41.9 1039.3 -9.9 -9.999 -99.9 -99.99 -9.99
2019/12/12 19:12 EST    1.21   1.27    3  288    4  32.4  41.7 1039.2 -9.9 -9.999 -99.9 -99.99 -9.99
2019/12/12 19:18 EST    1.37   1.42    2  290    3  32.4  41.9 1039.3 -9.9 -9.999 -99.9 -99.99 -9.99
2019/12/12 19:24 EST    1.52   1.57    0  287    2  32.4  41.9 1039.2 -9.9 -9.999 -99.9 -99.99 -9.99
2019/12/12 19:30 EST    1.67   1.72    0   93    2  31.5  41.9 1039.1 -9.9 -9.999 -99.9 -99.99 -9.99
2019/12/12 19:36 EST    1.83   1.89    0   90    1  31.8  42.1 1038.9 -9.9 -9.999 -99.9 -99.99 -9.99
2019/12/12 19:42 EST    1.99   2.05    1   73    1  31.8  42.1 1038.9 -9.9 -9.999 -99.9 -99.99 -9.99
2019/12/12 19:48 EST    2.15   2.20    2   80    2  31.1  42.3 1038.7 -9.9 -9.999 -99.9 -99.99 -9.99
2019/12/12 19:54 EST    2.31   2.37    2   76    3  31.3  42.3 1038.7 -9.9 -9.999 -99.9 -99.99 -9.99
2019/12/12 20:00 EST    2.46   2.53    2   83    3  31.3  42.3 1038.7 -9.9 -9.999 -99.9 -99.99 -9.99
2019/12/12 20:06 EST    2.62   2.70    2   93    3  31.1  42.3 1038.8 -9.9 -9.999 -99.9 -99.99 -9.99
2019/12/12 20:12 EST    2.78   2.86    0   88    1  30.9  42.3 1038.8 -9.9 -9.999 -99.9 -99.99 -9.99
2019/12/12 20:18 EST    2.93   3.01    0  118    1  30.9  42.3 1039.0 -9.9 -9.999 -99.9 -99.99 -9.99
2019/12/12 20:24 EST    3.08   3.15    2   38    2  30.6  42.3 1039.0 -9.9 -9.999 -99.9 -99.99 -9.99
2019/12/12 20:30 EST    3.23   3.29    0   11    2  30.4  42.3 1039.1 -9.9 -9.999 -99.9 -99.99 -9.99
2019/12/12 20:36 EST    3.38   3.44    1   10    2  30.6  42.3 1039.2 -9.9 -9.999 -99.9 -99.99 -9.99
2019/12/12 20:42 EST    3.52   3.57    2   62    3  30.6  42.3 1039.0 -9.9 -9.999 -99.9 -99.99 -9.99
2019/12/12 20:48 EST    3.66   3.68    2   70    3  30.2  42.3 1039.0 -9.9 -9.999 -99.9 -99.99 -9.99
2019/12/12 20:54 EST    3.80   3.79    2   43    3  30.2  42.3 1038.9 -9.9 -9.999 -99.9 -99.99 -9.99
2019/12/12 21:00 EST    3.94   3.91    1   74    3  30.2  42.3 1038.8 -9.9 -9.999 -99.9 -99.99 -9.99
2019/12/12 21:06 EST    4.07   4.04    2   50    3  29.8  42.3 1038.9 -9.9 -9.999 -99.9 -99.99 -9.99
2019/12/12 21:12 EST    4.21   4.17    2   81    3  29.8  42.3 1038.8 -9.9 -9.999 -99.9 -99.99 -9.99
2019/12/12 21:18 EST    4.33   4.31    0   83    2  29.8  42.4 1038.7 -9.9 -9.999 -99.9 -99.99 -9.99
2019/12/12 21:24 EST    4.46   4.44    1   93    1  30.4  42.3 1038.7 -9.9 -9.999 -99.9 -99.99 -9.99
2019/12/12 21:30 EST    4.58   4.58    1   33    2  29.8  42.3 1038.7 -9.9 -9.999 -99.9 -99.99 -9.99
2019/12/12 21:36 EST    4.70   4.72    1   44    2  29.7  42.3 1038.8 -9.9 -9.999 -99.9 -99.99 -9.99
2019/12/12 21:42 EST    4.81   4.83    0   94    2  30.0  42.3 1038.7 -9.9 -9.999 -99.9 -99.99 -9.99
2019/12/12 21:48 EST    4.92   4.93    4  198    6  33.1  42.3 1038.6 -9.9 -9.999 -99.9 -99.99 -9.99
2019/12/12 21:54 EST    5.03   5.02    3  238    7  32.4  42.3 1038.6 -9.9 -9.999 -99.9 -99.99 -9.99
2019/12/12 22:00 EST    5.13   5.14    3  142    8  32.5  42.3 1038.5 -9.9 -9.999 -99.9 -99.99 -9.99
2019/12/12 22:06 EST    5.23   5.26    4  164    7  32.7  42.3 1038.3 -9.9 -9.999 -99.9 -99.99 -9.99
2019/12/12 22:12 EST    5.33   5.34    8  208   10  33.8  42.3 1038.4 -9.9 -9.999 -99.9 -99.99 -9.99
2019/12/12 22:18 EST    5.42   5.45    8  198   10  34.2  42.3 1038.4 -9.9 -9.999 -99.9 -99.99 -9.99
2019/12/12 22:24 EST    5.50   5.54    9  199   10  34.2  42.4 1038.3 -9.9 -9.999 -99.9 -99.99 -9.99
2019/12/12 22:30 EST    5.58   5.64    7  204   10  34.0  42.4 1038.2 -9.9 -9.999 -99.9 -99.99 -9.99
2019/12/12 22:36 EST    5.65   5.74    8  191   10  34.0  42.4 1038.2 -9.9 -9.999 -99.9 -99.99 -9.99
2019/12/12 22:42 EST    5.72   5.79    7  185   11  34.0  42.4 1038.1 -9.9 -9.999 -99.9 -99.99 -9.99
2019/12/12 22:48 EST    5.77   5.84    8  188   10  34.0  42.4 1038.2 -9.9 -9.999 -99.9 -99.99 -9.99
2019/12/12 22:54 EST    5.83   5.89    7  210    9  34.0  42.4 1038.1 -9.9 -9.999 -99.9 -99.99 -9.99
2019/12/12 23:00 EST    5.87   5.93    7  212    9  34.0  42.4 1038.1 -9.9 -9.999 -99.9 -99.99 -9.99
2019/12/12 23:06 EST    5.91   5.98    7  189    9  34.2  42.4 1038.0 -9.9 -9.999 -99.9 -99.99 -9.99
2019/12/12 23:12 EST    5.94   6.01    7  205    9  34.3  42.4 1037.8 -9.9 -9.999 -99.9 -99.99 -9.99
2019/12/12 23:18 EST    5.95   6.03    7  194    9  34.5  42.4 1037.6 -9.9 -9.999 -99.9 -99.99 -9.99
2019/12/12 23:24 EST    5.96   6.06    6  200    8  34.5  42.4 1037.5 -9.9 -9.999 -99.9 -99.99 -9.99
2019/12/12 23:30 EST    5.97   6.08    8  203    9  34.5  42.4 1037.4 -9.9 -9.999 -99.9 -99.99 -9.99
2019/12/12 23:36 EST    5.96   6.08    7  204   10  34.7  42.4 1037.3 -9.9 -9.999 -99.9 -99.99 -9.99
2019/12/12 23:42 EST    5.94   6.07    6  190    9  34.7  42.4 1037.3 -9.9 -9.999 -99.9 -99.99 -9.99
2019/12/12 23:48 EST    5.91   6.01    6  204    8  34.7  42.4 1037.3 -9.9 -9.999 -99.9 -99.99 -9.99
2019/12/12 23:54 EST    5.87   5.95    5  187    7  34.7  42.4 1037.2 -9.9 -9.999 -99.9 -99.99 -9.99
2019/12/13 00:00 EST    5.83   5.87    3  154    6  34.2  42.4 1036.9 -9.9 -9.999 -99.9 -99.99 -9.99
2019/12/13 00:06 EST    5.77   5.77    3  145    5  33.6  42.4 1036.7 -9.9 -9.999 -99.9 -99.99 -9.99
2019/12/13 00:12 EST    5.70   5.68    1  154    3  33.3  42.4 1036.6 -9.9 -9.999 -99.9 -99.99 -9.99
2019/12/13 00:18 EST    5.63   5.57    3   34    4  30.2  42.4 1036.6 -9.9 -9.999 -99.9 -99.99 -9.99
2019/12/13 00:24 EST    5.54   5.47    3   52    5  29.1  42.4 1036.4 -9.9 -9.999 -99.9 -99.99 -9.99
2019/12/13 00:30 EST    5.45   5.35    4   36    4  28.4  42.4 1036.4 -9.9 -9.999 -99.9 -99.99 -9.99
2019/12/13 00:36 EST    5.35   5.24    4   46    5  28.2  42.4 1036.5 -9.9 -9.999 -99.9 -99.99 -9.99
2019/12/13 00:42 EST    5.24   5.13    3   45    4  28.2  42.4 1036.6 -9.9 -9.999 -99.9 -99.99 -9.99
2019/12/13 00:48 EST    5.13   5.01    3   47    4  28.4  42.4 1036.6 -9.9 -9.999 -99.9 -99.99 -9.99
2019/12/13 00:54 EST    5.00   4.88    3   55    5  28.0  42.4 1036.5 -9.9 -9.999 -99.9 -99.99 -9.99
2019/12/13 01:00 EST    4.87   4.74    3   48    5  28.0  42.4 1036.5 -9.9 -9.999 -99.9 -99.99 -9.99
2019/12/13 01:06 EST    4.74   4.60    4   51    5  28.0  42.3 1036.5 -9.9 -9.999 -99.9 -99.99 -9.99
2019/12/13 01:12 EST    4.60   4.46    3   54    6  27.9  42.3 1036.4 -9.9 -9.999 -99.9 -99.99 -9.99
2019/12/13 01:18 EST    4.46   4.32    4   59    6  27.3  42.3 1036.3 -9.9 -9.999 -99.9 -99.99 -9.99
2019/12/13 01:24 EST    4.32   4.17    4   55    7  27.5  42.3 1036.1 -9.9 -9.999 -99.9 -99.99 -9.99
2019/12/13 01:30 EST    4.17   4.03    4   45    6  27.7  42.3 1036.1 -9.9 -9.999 -99.9 -99.99 -9.99
2019/12/13 01:36 EST    4.02   3.89    3   65    7  27.5  42.3 1036.0 -9.9 -9.999 -99.9 -99.99 -9.99
2019/12/13 01:42 EST    3.87   3.76    4   54    7  27.7  42.3 1036.0 -9.9 -9.999 -99.9 -99.99 -9.99
2019/12/13 01:48 EST    3.72   3.62    3   42    6  28.0  42.3 1036.0 -9.9 -9.999 -99.9 -99.99 -9.99
2019/12/13 01:54 EST    3.56   3.48    4   54    6  28.4  42.3 1035.9 -9.9 -9.999 -99.9 -99.99 -9.99
2019/12/13 02:00 EST    3.41   3.33    4   54    6  28.0  42.3 1035.8 -9.9 -9.999 -99.9 -99.99 -9.99
2019/12/13 02:06 EST    3.26   3.20    5   50    7  28.0  42.3 1035.7 -9.9 -9.999 -99.9 -99.99 -9.99
2019/12/13 02:12 EST    3.11   3.06    5   48    8  28.2  42.4 1035.8 -9.9 -9.999 -99.9 -99.99 -9.99
2019/12/13 02:18 EST    2.96   2.91    4   44    7  28.0  42.4 1035.8 -9.9 -9.999 -99.9 -99.99 -9.99
2019/12/13 02:24 EST    2.81   2.76    4   50    6  28.2  42.4 1035.8 -9.9 -9.999 -99.9 -99.99 -9.99
2019/12/13 02:30 EST    2.67   2.61    5   51    7  28.0  42.4 1035.6 -9.9 -9.999 -99.9 -99.99 -9.99
2019/12/13 02:36 EST    2.53   2.44    5   48    7  28.0  42.4 1035.5 -9.9 -9.999 -99.9 -99.99 -9.99
2019/12/13 02:42 EST    2.39   2.29    4   48    7  27.9  42.4 1035.4 -9.9 -9.999 -99.9 -99.99 -9.99
2019/12/13 02:48 EST    2.25   2.17    4   42    7  27.9  42.4 1035.3 -9.9 -9.999 -99.9 -99.99 -9.99
2019/12/13 02:54 EST    2.12   2.05    5   49    8  28.0  42.4 1035.1 -9.9 -9.999 -99.9 -99.99 -9.99
2019/12/13 03:00 EST    1.99   1.93    4   50    7  28.0  42.4 1035.1 -9.9 -9.999 -99.9 -99.99 -9.99
2019/12/13 03:06 EST    1.86   1.82    4   51    7  28.0  42.4 1035.0 -9.9 -9.999 -99.9 -99.99 -9.99
2019/12/13 03:12 EST    1.74   1.71    3   64    6  28.0  42.3 1034.9 -9.9 -9.999 -99.9 -99.99 -9.99
2019/12/13 03:18 EST    1.62   1.58    4   51    6  28.0  42.3 1034.7 -9.9 -9.999 -99.9 -99.99 -9.99
2019/12/13 03:24 EST    1.50   1.47    4   51    6  28.0  42.3 1034.7 -9.9 -9.999 -99.9 -99.99 -9.99
2019/12/13 03:30 EST    1.39   1.37    4   51    6  28.2  42.3 1034.6 -9.9 -9.999 -99.9 -99.99 -9.99
2019/12/13 03:36 EST    1.28   1.24    4   61    6  28.0  42.3 1034.3 -9.9 -9.999 -99.9 -99.99 -9.99
2019/12/13 03:42 EST    1.18   1.13    4   53    7  28.0  42.3 1034.2 -9.9 -9.999 -99.9 -99.99 -9.99
2019/12/13 03:48 EST    1.08   1.01    4   43    7  28.2  42.1 1034.0 -9.9 -9.999 -99.9 -99.99 -9.99
2019/12/13 03:54 EST    0.98   0.91    3   39    7  28.4  42.1 1034.0 -9.9 -9.999 -99.9 -99.99 -9.99
2019/12/13 04:00 EST    0.88   0.78    4   45    7  28.6  42.1 1033.9 -9.9 -9.999 -99.9 -99.99 -9.99
2019/12/13 04:06 EST    0.80   0.70    4   52    7  28.2  42.1 1033.7 -9.9 -9.999 -99.9 -99.99 -9.99
2019/12/13 04:12 EST    0.71   0.62    4   53    8  28.2  42.1 1033.3 -9.9 -9.999 -99.9 -99.99 -9.99
2019/12/13 04:18 EST    0.63   0.55    4   39    6  28.4  41.9 1033.4 -9.9 -9.999 -99.9 -99.99 -9.99
2019/12/13 04:24 EST    0.56   0.46    3   19    7  28.8  41.9 1033.5 -9.9 -9.999 -99.9 -99.99 -9.99
2019/12/13 04:30 EST    0.49   0.36    2   16    5  28.9  41.9 1033.3 -9.9 -9.999 -99.9 -99.99 -9.99
2019/12/13 04:36 EST    0.42   0.28    4   23    6  28.9  41.9 1033.2 -9.9 -9.999 -99.9 -99.99 -9.99
2019/12/13 04:42 EST    0.37   0.23    2   31    5  29.1  41.7 1033.1 -9.9 -9.999 -99.9 -99.99 -9.99
2019/12/13 04:48 EST    0.32   0.19    2   50    6  29.1  41.7 1033.0 -9.9 -9.999 -99.9 -99.99 -9.99
2019/12/13 04:54 EST    0.27   0.18    4   53    6  28.8  41.7 1032.9 -9.9 -9.999 -99.9 -99.99 -9.99
2019/12/13 05:00 EST    0.24   0.16    5   56    7  28.2  41.7 1032.8 -9.9 -9.999 -99.9 -99.99 -9.99
2019/12/13 05:06 EST    0.21   0.15    4   47    9  28.0  41.7 1032.8 -9.9 -9.999 -99.9 -99.99 -9.99
2019/12/13 05:12 EST    0.19   0.15    5   45    8  28.2  41.7 1032.8 -9.9 -9.999 -99.9 -99.99 -9.99
2019/12/13 05:18 EST    0.17   0.15    5   43    7  28.4  41.7 1032.6 -9.9 -9.999 -99.9 -99.99 -9.99
2019/12/13 05:24 EST    0.17   0.15    4   49    6  28.4  41.7 1032.5 -9.9 -9.999 -99.9 -99.99 -9.99
2019/12/13 05:30 EST    0.17   0.16    3   30    6  28.8  41.5 1032.5 -9.9 -9.999 -99.9 -99.99 -9.99
2019/12/13 05:36 EST    0.19   0.18    4   44    7  28.6  41.7 1032.4 -9.9 -9.999 -99.9 -99.99 -9.99
2019/12/13 05:42 EST    0.21   0.21    3   25    5  28.9  41.7 1032.5 -9.9 -9.999 -99.9 -99.99 -9.99
2019/12/13 05:48 EST    0.25   0.26    3   39    7  28.9  41.7 1032.5 -9.9 -9.999 -99.9 -99.99 -9.99
2019/12/13 05:54 EST    0.29   0.31    4   24    7  28.9  41.7 1032.5 -9.9 -9.999 -99.9 -99.99 -9.99
2019/12/13 06:00 EST    0.34   0.37    4   51    9  28.8  41.7 1032.5 -9.9 -9.999 -99.9 -99.99 -9.99
2019/12/13 06:06 EST    0.41   0.45    4   44    7  28.8  41.7 1032.4 -9.9 -9.999 -99.9 -99.99 -9.99
2019/12/13 06:12 EST    0.48   0.55    5   48    7  28.6  41.7 1032.3 -9.9 -9.999 -99.9 -99.99 -9.99
2019/12/13 06:18 EST    0.56   0.67    6   53    9  28.4  41.9 1032.1 -9.9 -9.999 -99.9 -99.99 -9.99
2019/12/13 06:24 EST    0.65   0.78    4   42    9  28.8  41.9 1032.2 -9.9 -9.999 -99.9 -99.99 -9.99
2019/12/13 06:30 EST    0.76   0.92    4   51    6  28.8  41.9 1032.2 -9.9 -9.999 -99.9 -99.99 -9.99
2019/12/13 06:36 EST    0.87   1.05    4   46    7  28.8  41.9 1032.1 -9.9 -9.999 -99.9 -99.99 -9.99
2019/12/13 06:42 EST    0.99   1.18    4   52    7  28.8  41.9 1032.0 -9.9 -9.999 -99.9 -99.99 -9.99
2019/12/13 06:48 EST    1.11   1.32    5   47    7  28.8  41.9 1031.9 -9.9 -9.999 -99.9 -99.99 -9.99
2019/12/13 06:54 EST    1.25   1.45    4   48    6  28.8  41.9 1031.8 -9.9 -9.999 -99.9 -99.99 -9.99
2019/12/13 07:00 EST    1.39   1.59    3   40    6  29.1  41.9 1031.9 -9.9 -9.999 -99.9 -99.99 -9.99
2019/12/13 07:06 EST    1.54   1.73    2   40    4  29.3  41.9 1031.8 -9.9 -9.999 -99.9 -99.99 -9.99
2019/12/13 07:12 EST    1.69   1.88    4   49    5  29.5  41.9 1031.7 -9.9 -9.999 -99.9 -99.99 -9.99
2019/12/13 07:18 EST    1.85   2.03    3   46    5  29.5  41.9 1031.6 -9.9 -9.999 -99.9 -99.99 -9.99
2019/12/13 07:24 EST    2.01   2.20    2   13    5  29.7  41.7 1031.6 -9.9 -9.999 -99.9 -99.99 -9.99
2019/12/13 07:30 EST    2.18   2.35    3   34    5  29.7  41.7 1031.6 -9.9 -9.999 -99.9 -99.99 -9.99
2019/12/13 07:36 EST    2.35   2.49    3   35    6  29.8  41.7 1031.3 -9.9 -9.999 -99.9 -99.99 -9.99
2019/12/13 07:42 EST    2.52   2.62    4   52    7  29.8  41.7 1031.2 -9.9 -9.999 -99.9 -99.99 -9.99
2019/12/13 07:48 EST    2.69   2.74    2   16    7  30.0  41.9 1031.1 -9.9 -9.999 -99.9 -99.99 -9.99
2019/12/13 07:54 EST    2.87   2.89    3   38    7  30.4  41.9 1031.1 -9.9 -9.999 -99.9 -99.99 -9.99
2019/12/13 08:00 EST    3.04   3.05    4   38    6  30.4  41.9 1031.0 -9.9 -9.999 -99.9 -99.99 -9.99
2019/12/13 08:06 EST    3.22   3.22    2   49    6  30.6  41.9 1031.0 -9.9 -9.999 -99.9 -99.99 -9.99
2019/12/13 08:12 EST    3.39   3.39    3   17    6  30.7  41.9 1031.0 -9.9 -9.999 -99.9 -99.99 -9.99
2019/12/13 08:18 EST    3.56   3.58    4   34    8  30.7  41.9 1031.0 -9.9 -9.999 -99.9 -99.99 -9.99
2019/12/13 08:24 EST    3.73   3.77    3   24    7  30.9  41.9 1031.0 -9.9 -9.999 -99.9 -99.99 -9.99
2019/12/13 08:30 EST    3.90   3.94    3   38    7  30.7  42.1 1031.0 -9.9 -9.999 -99.9 -99.99 -9.99
2019/12/13 08:36 EST    4.06   4.09    5   49    8  30.6  42.1 1030.8 -9.9 -9.999 -99.9 -99.99 -9.99
2019/12/13 08:42 EST    4.22   4.25    5   49    8  30.9  42.1 1030.6 -9.9 -9.999 -99.9 -99.99 -9.99
2019/12/13 08:48 EST    4.38   4.37    5   67    7  31.3  42.1 1030.7 -9.9 -9.999 -99.9 -99.99 -9.99
2019/12/13 08:54 EST    4.53   4.51    5   53    7  31.5  42.1 1030.6 -9.9 -9.999 -99.9 -99.99 -9.99
2019/12/13 09:00 EST    4.68   4.64    4   39    7  31.8  42.1 1030.7 -9.9 -9.999 -99.9 -99.99 -9.99
2019/12/13 09:06 EST    4.83   4.77    4   36    7  32.5  42.1 1030.7 -9.9 -9.999 -99.9 -99.99 -9.99
2019/12/13 09:12 EST    4.97   4.92    4   66    6  32.4  42.1 1030.7 -9.9 -9.999 -99.9 -99.99 -9.99
2019/12/13 09:18 EST    5.11   5.11    3   65    7  32.2  42.1 1030.7 -9.9 -9.999 -99.9 -99.99 -9.99
2019/12/13 09:24 EST    5.25   5.28    3   49    7  32.5  42.3 1030.9 -9.9 -9.999 -99.9 -99.99 -9.99
2019/12/13 09:30 EST    5.38   5.41    4   65    8  32.4  42.3 1030.8 -9.9 -9.999 -99.9 -99.99 -9.99
2019/12/13 09:36 EST    5.50   5.55    5   47    8  32.0  42.3 1030.7 -9.9 -9.999 -99.9 -99.99 -9.99
2019/12/13 09:42 EST    5.62   5.69    3   53    9  32.4  42.3 1030.6 -9.9 -9.999 -99.9 -99.99 -9.99
2019/12/13 09:48 EST    5.74   5.84    5   42    8  32.4  42.3 1030.6 -9.9 -9.999 -99.9 -99.99 -9.99
2019/12/13 09:54 EST    5.85   5.97    3   71    6  32.5  42.3 1030.6 -9.9 -9.999 -99.9 -99.99 -9.99
2019/12/13 10:00 EST    5.96   6.10    5   62    8  32.4  42.3 1030.4 -9.9 -9.999 -99.9 -99.99 -9.99
2019/12/13 10:06 EST    6.06   6.24    5   56    9  32.5  42.3 1030.2 -9.9 -9.999 -99.9 -99.99 -9.99
2019/12/13 10:12 EST    6.16   6.38    4   55    8  32.7  42.4 1030.1 -9.9 -9.999 -99.9 -99.99 -9.99
2019/12/13 10:18 EST    6.26   6.49    3   67    7  32.7  42.4 1030.1 -9.9 -9.999 -99.9 -99.99 -9.99
2019/12/13 10:24 EST    6.34   6.56    4   58    8  32.7  42.4 1030.0 -9.9 -9.999 -99.9 -99.99 -9.99
2019/12/13 10:30 EST    6.43   6.64    4   69    7  32.5  42.4 1029.8 -9.9 -9.999 -99.9 -99.99 -9.99
2019/12/13 10:36 EST    6.51   6.74    4   49    9  32.5  42.4 1029.6 -9.9 -9.999 -99.9 -99.99 -9.99
2019/12/13 10:42 EST    6.58   6.84    4   51   10  32.4  42.4 1029.5 -9.9 -9.999 -99.9 -99.99 -9.99
2019/12/13 10:48 EST    6.64   6.94    4   62    8  32.4  42.4 1029.5 -9.9 -9.999 -99.9 -99.99 -9.99
2019/12/13 10:54 EST    6.70   7.03    3   31    6  32.7  42.4 1029.5 -9.9 -9.999 -99.9 -99.99 -9.99
2019/12/13 11:00 EST    6.76   7.10    4   52    8  32.5  42.4 1029.2 -9.9 -9.999 -99.9 -99.99 -9.99
2019/12/13 11:06 EST    6.80   7.16    5   56    9  32.5  42.4 1029.1 -9.9 -9.999 -99.9 -99.99 -9.99
2019/12/13 11:12 EST    6.84   7.21    4   63    8  32.4  42.4 1029.0 -9.9 -9.999 -99.9 -99.99 -9.99
2019/12/13 11:18 EST    6.87   7.24    4   55    9  32.5  42.4 1028.9 -9.9 -9.999 -99.9 -99.99 -9.99
2019/12/13 11:24 EST    6.90   7.27    4   52    9  32.7  42.4 1028.9 -9.9 -9.999 -99.9 -99.99 -9.99
2019/12/13 11:30 EST    6.91   7.28    4   55   11  32.7  42.4 1028.9 -9.9 -9.999 -99.9 -99.99 -9.99
2019/12/13 11:36 EST    6.92   7.29    4   55    8  32.7  42.4 1028.7 -9.9 -9.999 -99.9 -99.99 -9.99
2019/12/13 11:42 EST    6.91   7.28    4   51    8  32.9  42.4 1028.6 -9.9 -9.999 -99.9 -99.99 -9.99
2019/12/13 11:48 EST    6.90   7.26    5   52    9  32.5  42.4 1028.5 -9.9 -9.999 -99.9 -99.99 -9.99
2019/12/13 11:54 EST    6.88   7.23    4   44   11  32.7  42.4 1028.4 -9.9 -9.999 -99.9 -99.99 -9.99
2019/12/13 12:00 EST    6.85   7.17    4   45    9  32.7  42.4 1028.1 -9.9 -9.999 -99.9 -99.99 -9.99
2019/12/13 12:06 EST    6.81   7.11    5   49    8  32.4  42.3 1027.7 -9.9 -9.999 -99.9 -99.99 -9.99
2019/12/13 12:12 EST    6.75   7.04    3   36   10  32.5  42.3 1027.6 -9.9 -9.999 -99.9 -99.99 -9.99
2019/12/13 12:18 EST    6.69   6.95    4   55    9  32.4  42.3 1027.5 -9.9 -9.999 -99.9 -99.99 -9.99
2019/12/13 12:24 EST    6.62   6.86    2   55    8  32.5  42.3 1027.3 -9.9 -9.999 -99.9 -99.99 -9.99
2019/12/13 12:30 EST    6.54   6.76    5   37    9  32.4  42.3 1027.3 -9.9 -9.999 -99.9 -99.99 -9.99
2019/12/13 12:36 EST    6.45   6.67    4   75   10  32.5  42.3 1027.1 -9.9 -9.999 -99.9 -99.99 -9.99
2019/12/13 12:42 EST    6.35   6.57    3   36   11  32.4  42.3 1027.0 -9.9 -9.999 -99.9 -99.99 -9.99
2019/12/13 12:48 EST    6.24   6.44    2   51    8  32.5  42.3 1027.0 -9.9 -9.999 -99.9 -99.99 -9.99
2019/12/13 12:54 EST    6.13   6.32    3   35    8  32.7  42.3 1026.9 -9.9 -9.999 -99.9 -99.99 -9.99
2019/12/13 13:00 EST    6.00   6.18    4   35    8  32.7  42.3 1026.6 -9.9 -9.999 -99.9 -99.99 -9.99
2019/12/13 13:06 EST    5.87   6.05    4   20    8  32.7  42.3 1026.7 -9.9 -9.999 -99.9 -99.99 -9.99
2019/12/13 13:12 EST    5.73   5.91    4   37    9  32.9  42.3 1026.6 -9.9 -9.999 -99.9 -99.99 -9.99
2019/12/13 13:18 EST    5.59   5.75    2   83    9  33.1  42.4 1026.4 -9.9 -9.999 -99.9 -99.99 -9.99
2019/12/13 13:24 EST    5.43   5.59    5   49   11  32.9  42.4 1026.1 -9.9 -9.999 -99.9 -99.99 -9.99
2019/12/13 13:30 EST    5.28   5.43    5   37   10  33.1  42.3 1025.9 -9.9 -9.999 -99.9 -99.99 -9.99
2019/12/13 13:36 EST    5.11   5.26    5   45    9  32.9  42.3 1025.8 -9.9 -9.999 -99.9 -99.99 -9.99
2019/12/13 13:42 EST    4.95   5.09    6   46    9  32.9  42.3 1025.5 -9.9 -9.999 -99.9 -99.99 -9.99
2019/12/13 13:48 EST    4.78   4.93    5   42   10  33.3  42.3 1025.5 -9.9 -9.999 -99.9 -99.99 -9.99
2019/12/13 13:54 EST    4.61   4.76    4   19    8  33.4  42.4 1025.5 -9.9 -9.999 -99.9 -99.99 -9.99
2019/12/13 14:00 EST    4.43   4.60    4   21    9  33.3  42.4 1025.5 -9.9 -9.999 -99.9 -99.99 -9.99
2019/12/13 14:06 EST    4.26   4.45    4   27    9  33.4  42.4 1025.5 -9.9 -9.999 -99.9 -99.99 -9.99
2019/12/13 14:12 EST    4.08   4.30    4   49    7  33.6  42.4 1025.3 -9.9 -9.999 -99.9 -99.99 -9.99
2019/12/13 14:18 EST    3.90   4.15    3   39    6  33.6  42.4 1025.2 -9.9 -9.999 -99.9 -99.99 -9.99
2019/12/13 14:24 EST    3.73   4.00    3   53    7  33.6  42.4 1025.2 -9.9 -9.999 -99.9 -99.99 -9.99
2019/12/13 14:30 EST    3.55   3.82    4   36    7  33.8  42.4 1025.2 -9.9 -9.999 -99.9 -99.99 -9.99
2019/12/13 14:36 EST    3.38   3.64    4   41    8  33.8  42.4 1025.0 -9.9 -9.999 -99.9 -99.99 -9.99
2019/12/13 14:42 EST    3.21   3.47    4   26    9  34.0  42.4 1025.0 -9.9 -9.999 -99.9 -99.99 -9.99
2019/12/13 14:48 EST    3.04   3.32    7   43   10  33.8  42.4 1025.0 -9.9 -9.999 -99.9 -99.99 -9.99
2019/12/13 14:54 EST    2.87   3.17    3   46    9  34.2  42.3 1024.8 -9.9 -9.999 -99.9 -99.99 -9.99
2019/12/13 15:00 EST    2.70   3.01    3   31    8  34.2  42.3 1024.8 -9.9 -9.999 -99.9 -99.99 -9.99
2019/12/13 15:06 EST    2.54   2.86    3   53    8  34.3  42.3 1024.7 -9.9 -9.999 -99.9 -99.99 -9.99
2019/12/13 15:12 EST    2.38   2.69    4   44   10  34.0  42.3 1024.7 -9.9 -9.999 -99.9 -99.99 -9.99
2019/12/13 15:18 EST    2.22   2.53    4   35    9  34.2  42.3 1024.5 -9.9 -9.999 -99.9 -99.99 -9.99
2019/12/13 15:24 EST    2.06   2.38    3   40    9  34.3  42.3 1024.5 -9.9 -9.999 -99.9 -99.99 -9.99
2019/12/13 15:30 EST    1.91   2.23    5   36    9  34.5  42.3 1024.4 -9.9 -9.999 -99.9 -99.99 -9.99
2019/12/13 15:36 EST    1.77   2.12    6   48    9  34.3  42.3 1024.4 -9.9 -9.999 -99.9 -99.99 -9.99
2019/12/13 15:42 EST    1.62   1.99    3   54   10  34.5  42.3 1024.3 -9.9 -9.999 -99.9 -99.99 -9.99
2019/12/13 15:48 EST    1.48   1.86    4   33   10  34.5  42.3 1024.3 -9.9 -9.999 -99.9 -99.99 -9.99
2019/12/13 15:54 EST    1.34   1.73    4   40    9  34.5  42.3 1024.3 -9.9 -9.999 -99.9 -99.99 -9.99
2019/12/13 16:00 EST    1.21   1.57    4   36   10  34.5  42.3 1024.2 -9.9 -9.999 -99.9 -99.99 -9.99
2019/12/13 16:06 EST    1.08   1.42    5   41   10  34.7  42.3 1024.2 -9.9 -9.999 -99.9 -99.99 -9.99
2019/12/13 16:12 EST    0.95   1.25    5   42   10  34.7  42.3 1024.1 -9.9 -9.999 -99.9 -99.99 -9.99
2019/12/13 16:18 EST    0.83   1.08    5   41    9  34.5  42.3 1024.0 -9.9 -9.999 -99.9 -99.99 -9.99
2019/12/13 16:24 EST    0.71   0.91    6   50   12  34.3  42.3 1023.8 -9.9 -9.999 -99.9 -99.99 -9.99
2019/12/13 16:30 EST    0.59   0.77    7   49   11  34.3  42.3 1023.8 -9.9 -9.999 -99.9 -99.99 -9.99
2019/12/13 16:36 EST    0.48   0.65    6   49   11  34.5  42.3 1023.7 -9.9 -9.999 -99.9 -99.99 -9.99
2019/12/13 16:42 EST    0.38   0.52    8   49   14  34.3  42.3 1023.5 -9.9 -9.999 -99.9 -99.99 -9.99
2019/12/13 16:48 EST    0.28   0.42    7   45   11  34.3  42.3 1023.4 -9.9 -9.999 -99.9 -99.99 -9.99
2019/12/13 16:54 EST    0.18   0.34    7   43   12  34.3  42.3 1023.4 -9.9 -9.999 -99.9 -99.99 -9.99
2019/12/13 17:00 EST    0.09   0.24    6   41   11  34.3  42.3 1023.4 -9.9 -9.999 -99.9 -99.99 -9.99
2019/12/13 17:06 EST    0.01   0.16    5   37   10  34.3  42.3 1023.4 -9.9 -9.999 -99.9 -99.99 -9.99
2019/12/13 17:12 EST   -0.07   0.09    7   39   12  34.3  42.3 1023.2 -9.9 -9.999 -99.9 -99.99 -9.99
2019/12/13 17:18 EST   -0.14   0.01    5   26   11  34.3  42.3 1023.2 -9.9 -9.999 -99.9 -99.99 -9.99
2019/12/13 17:24 EST   -0.21  -0.06    4   47   11  34.5  42.1 1023.1 -9.9 -9.999 -99.9 -99.99 -9.99
2019/12/13 17:30 EST   -0.26  -0.11    6   43   11  34.5  42.1 1023.1 -9.9 -9.999 -99.9 -99.99 -9.99
2019/12/13 17:36 EST   -0.31  -0.15    8   37   14  34.3  42.1 1023.1 -9.9 -9.999 -99.9 -99.99 -9.99
2019/12/13 17:42 EST   -0.35  -0.17    3   41   11  34.5  42.1 1023.1 -9.9 -9.999 -99.9 -99.99 -9.99
2019/12/13 17:48 EST   -0.38  -0.19    4   29   10  34.5  42.1 1022.9 -9.9 -9.999 -99.9 -99.99 -9.99
2019/12/13 17:54 EST   -0.41  -0.20    6   40    9  34.5  42.1 1022.8 -9.9 -9.999 -99.9 -99.99 -9.99
2019/12/13 18:00 EST   -0.42  -0.20    7   36   11  34.5  42.1 1022.7 -9.9 -9.999 -99.9 -99.99 -9.99
2019/12/13 18:06 EST   -0.42  -0.21    6   38   11  34.5  42.1 1022.7 -9.9 -9.999 -99.9 -99.99 -9.99
2019/12/13 18:12 EST   -0.41  -0.19    3   48    9  34.7  42.1 1022.7 -9.9 -9.999 -99.9 -99.99 -9.99
2019/12/13 18:18 EST   -0.40  -0.16    6   44   10  34.7  42.1 1022.4 -9.9 -9.999 -99.9 -99.99 -9.99
2019/12/13 18:24 EST   -0.37  -0.14    7   47   11  34.7  41.9 1022.3 -9.9 -9.999 -99.9 -99.99 -9.99
2019/12/13 18:30 EST   -0.33  -0.09    5   22   10  34.9  41.9 1022.2 -9.9 -9.999 -99.9 -99.99 -9.99
2019/12/13 18:36 EST   -0.28  -0.00    3   47   11  34.7  41.9 1022.1 -9.9 -9.999 -99.9 -99.99 -9.99
2019/12/13 18:42 EST   -0.23   0.12    4   51   10  34.5  41.9 1022.1 -9.9 -9.999 -99.9 -99.99 -9.99
2019/12/13 18:48 EST   -0.16   0.23    4   46    8  34.7  41.9 1022.0 -9.9 -9.999 -99.9 -99.99 -9.99
2019/12/13 18:54 EST   -0.08   0.36    5   45    8  34.7  41.9 1021.9 -9.9 -9.999 -99.9 -99.99 -9.99
2019/12/13 19:00 EST    0.01   0.51    5   38   10  34.9  41.9 1021.7 -9.9 -9.999 -99.9 -99.99 -9.99
2019/12/13 19:06 EST    0.11   0.65    4   35    9  34.9  41.9 1021.6 -9.9 -9.999 -99.9 -99.99 -9.99
2019/12/13 19:12 EST    0.21   0.78    5   35   10  34.9  41.9 1021.5 -9.9 -9.999 -99.9 -99.99 -9.99
2019/12/13 19:18 EST    0.32   0.94    5   35   10  34.9  41.9 1021.4 -9.9 -9.999 -99.9 -99.99 -9.99
2019/12/13 19:24 EST    0.45   1.09    5   54   11  34.9  41.9 1021.3 -9.9 -9.999 -99.9 -99.99 -9.99
2019/12/13 19:30 EST    0.57   1.24    7   44   11  34.9  41.9 1021.3 -9.9 -9.999 -99.9 -99.99 -9.99
2019/12/13 19:36 EST    0.71   1.38    6   43   12  35.1  41.9 1021.1 -9.9 -9.999 -99.9 -99.99 -9.99
2019/12/13 19:42 EST    0.85   1.50    5   46   11  35.1  41.9 1020.9 -9.9 -9.999 -99.9 -99.99 -9.99
2019/12/13 19:48 EST    1.00   1.63    7   45   11  35.1  41.9 1020.8 -9.9 -9.999 -99.9 -99.99 -9.99
2019/12/13 19:54 EST    1.15   1.76    4   27   11  35.1  41.9 1020.8 -9.9 -9.999 -99.9 -99.99 -9.99
2019/12/13 20:00 EST    1.30   1.91    7   45   11  35.1  41.9 1020.7 -9.9 -9.999 -99.9 -99.99 -9.99
2019/12/13 20:06 EST    1.46   2.07    5   46   10  35.2  41.9 1020.7 -9.9 -9.999 -99.9 -99.99 -9.99
2019/12/13 20:12 EST    1.62   2.23    5   46   10  35.4  41.9 1020.5 -9.9 -9.999 -99.9 -99.99 -9.99
2019/12/13 20:18 EST    1.78   2.39    4   38    8  35.4  41.9 1020.2 -9.9 -9.999 -99.9 -99.99 -9.99
2019/12/13 20:24 EST    1.94   2.54    4   50    9  35.4  41.9 1020.0 -9.9 -9.999 -99.9 -99.99 -9.99
2019/12/13 20:30 EST    2.11   2.69    5   51   10  35.4  41.9 1019.9 -9.9 -9.999 -99.9 -99.99 -9.99
2019/12/13 20:36 EST    2.27   2.87    5   44    8  35.6  41.9 1019.8 -9.9 -9.999 -99.9 -99.99 -9.99
2019/12/13 20:42 EST    2.43   3.02    4   48    9  35.6  41.9 1019.5 -9.9 -9.999 -99.9 -99.99 -9.99
2019/12/13 20:48 EST    2.59   3.19    4   48    9  35.6  41.9 1019.3 -9.9 -9.999 -99.9 -99.99 -9.99
2019/12/13 20:54 EST    2.76   3.35    4   55    9  35.6  41.9 1019.0 -9.9 -9.999 -99.9 -99.99 -9.99
2019/12/13 21:00 EST    2.91   3.49    5   58    9  35.6  41.9 1018.8 -9.9 -9.999 -99.9 -99.99 -9.99
2019/12/13 21:06 EST    3.07   3.63    5   58   11  35.8  41.9 1018.7 -9.9 -9.999 -99.9 -99.99 -9.99
2019/12/13 21:12 EST    3.23   3.74    5   51    9  36.1  41.9 1018.6 -9.9 -9.999 -99.9 -99.99 -9.99
2019/12/13 21:18 EST    3.38   3.86    5   54    8  36.3  41.9 1018.6 -9.9 -9.999 -99.9 -99.99 -9.99
2019/12/13 21:24 EST    3.53   4.00    4   41    9  36.5  41.9 1018.4 -9.9 -9.999 -99.9 -99.99 -9.99
2019/12/13 21:30 EST    3.67   4.16    4   53    9  36.5  41.9 1018.2 -9.9 -9.999 -99.9 -99.99 -9.99
2019/12/13 21:36 EST    3.82   4.29    4   57    8  36.5  41.9 1018.1 -9.9 -9.999 -99.9 -99.99 -9.99
2019/12/13 21:42 EST    3.96   4.42    4   64    7  36.7  41.9 1018.0 -9.9 -9.999 -99.9 -99.99 -9.99
2019/12/13 21:48 EST    4.09   4.57    3   42    8  37.0  41.9 1017.8 -9.9 -9.999 -99.9 -99.99 -9.99
2019/12/13 21:54 EST    4.23   4.72    3   58    8  37.0  41.9 1017.7 -9.9 -9.999 -99.9 -99.99 -9.99
2019/12/13 22:00 EST    4.35   4.86    4   57    9  37.0  41.9 1017.5 -9.9 -9.999 -99.9 -99.99 -9.99
2019/12/13 22:06 EST    4.48   4.99    3   44    7  37.0  42.1 1017.4 -9.9 -9.999 -99.9 -99.99 -9.99
2019/12/13 22:12 EST    4.60   5.15    4   71    9  37.0  42.1 1017.2 -9.9 -9.999 -99.9 -99.99 -9.99
2019/12/13 22:18 EST    4.72   5.29    4   50    9  37.4  42.1 1016.9 -9.9 -9.999 -99.9 -99.99 -9.99
2019/12/13 22:24 EST    4.84   5.42    3   63    7  37.6  42.1 1016.7 -9.9 -9.999 -99.9 -99.99 -9.99
2019/12/13 22:30 EST    4.95   5.55    4   51   10  37.8  42.1 1016.5 -9.9 -9.999 -99.9 -99.99 -9.99
2019/12/13 22:36 EST    5.05   5.68    3   54    9  38.1  42.1 1016.4 -9.9 -9.999 -99.9 -99.99 -9.99
2019/12/13 22:42 EST    5.16   5.81    2   54    6  38.3  42.3 1016.2 -9.9 -9.999 -99.9 -99.99 -9.99
2019/12/13 22:48 EST    5.26   5.93    3   80    8  38.5  42.3 1016.1 -9.9 -9.999 -99.9 -99.99 -9.99
2019/12/13 22:54 EST    5.35   6.04    3   59    8  38.5  42.3 1015.8 -9.9 -9.999 -99.9 -99.99 -9.99
2019/12/13 23:00 EST    5.44   6.15    2   54    7  38.5  42.3 1015.5 -9.9 -9.999 -99.9 -99.99 -9.99
2019/12/13 23:06 EST    5.52   6.25    3   51    7  38.5  42.3 1015.3 -9.9 -9.999 -99.9 -99.99 -9.99
2019/12/13 23:12 EST    5.60   6.34    3   59    8  38.7  42.3 1015.1 -9.9 -9.999 -99.9 -99.99 -9.99
2019/12/13 23:18 EST    5.67   6.45    3   79   10  38.8  42.3 1014.8 -9.9 -9.999 -99.9 -99.99 -9.99
2019/12/13 23:24 EST    5.74   6.55    3   89    6  39.0  42.3 1014.7 -9.9 -9.999 -99.9 -99.99 -9.99
2019/12/13 23:30 EST    5.80   6.65    2   69    8  39.0  42.3 1014.5 -9.9 -9.999 -99.9 -99.99 -9.99
2019/12/13 23:36 EST    5.85   6.73    3   92    7  39.2  42.3 1014.3 -9.9 -9.999 -99.9 -99.99 -9.99
2019/12/13 23:42 EST    5.90   6.79    2   99    8  39.4  42.3 1014.0 -9.9 -9.999 -99.9 -99.99 -9.99
2019/12/13 23:48 EST    5.93   6.87    2   44    6  39.7  42.3 1013.9 -9.9 -9.999 -99.9 -99.99 -9.99
2019/12/13 23:54 EST    5.96   6.93    2   42    7  39.7  42.3 1013.8 -9.9 -9.999 -99.9 -99.99 -9.99
2019/12/14 00:00 EST    5.98   6.98    2   76    7  39.9  42.3 1013.5 -9.9 -9.999 -99.9 -99.99 -9.99
2019/12/14 00:06 EST    6.00   6.99    2   62    7  40.1  42.3 1013.4 -9.9 -9.999 -99.9 -99.99 -9.99
2019/12/14 00:12 EST    6.00   6.98    3   79    6  40.1  42.3 1013.1 -9.9 -9.999 -99.9 -99.99 -9.99
2019/12/14 00:18 EST    6.00   6.95    2  120    5  40.1  42.3 1012.7 -9.9 -9.999 -99.9 -99.99 -9.99
2019/12/14 00:24 EST    5.98   6.94    2   62    6  40.3  42.3 1012.5 -9.9 -9.999 -99.9 -99.99 -9.99
2019/12/14 00:30 EST    5.96   6.90    4   80    9  40.3  42.3 1012.3 -9.9 -9.999 -99.9 -99.99 -9.99
2019/12/14 00:36 EST    5.92   6.85    3   82    8  40.5  42.3 1012.1 -9.9 -9.999 -99.9 -99.99 -9.99
2019/12/14 00:42 EST    5.88   6.80    3   64    8  40.5  42.3 1011.8 -9.9 -9.999 -99.9 -99.99 -9.99
2019/12/14 00:48 EST    5.83   6.72    3   78    8  40.5  42.3 1011.8 -9.9 -9.999 -99.9 -99.99 -9.99
2019/12/14 00:54 EST    5.76   6.65    4   60    9  40.5  42.1 1011.4 -9.9 -9.999 -99.9 -99.99 -9.99
2019/12/14 01:00 EST    5.69   6.57    3   88    8  40.8  42.1 1011.1 -9.9 -9.999 -99.9 -99.99 -9.99
2019/12/14 01:06 EST    5.61   6.51    3   72    8  40.8  42.1 1010.7 -9.9 -9.999 -99.9 -99.99 -9.99
2019/12/14 01:12 EST    5.52   6.42    4   56    8  40.8  42.1 1010.3 -9.9 -9.999 -99.9 -99.99 -9.99
2019/12/14 01:18 EST    5.42   6.31    3   58    8  41.0  42.1 1010.1 -9.9 -9.999 -99.9 -99.99 -9.99
2019/12/14 01:24 EST    5.32   6.20    3   53    8  41.2  42.1 1010.0 -9.9 -9.999 -99.9 -99.99 -9.99
2019/12/14 01:30 EST    5.20   6.09    2   73    8  41.2  42.1 1009.9 -9.9 -9.999 -99.9 -99.99 -9.99
2019/12/14 01:36 EST    5.08   6.00    3   59    9  41.5  42.1 1009.7 -9.9 -9.999 -99.9 -99.99 -9.99
2019/12/14 01:42 EST    4.95   5.93    2  123    7  41.7  42.1 1009.5 -9.9 -9.999 -99.9 -99.99 -9.99
2019/12/14 01:48 EST    4.82   5.83    4   75   10  41.5  42.3 1009.1 -9.9 -9.999 -99.9 -99.99 -9.99
2019/12/14 01:54 EST    4.68   5.72    3   90    9  41.5  42.3 1008.6 -9.9 -9.999 -99.9 -99.99 -9.99
2019/12/14 02:00 EST    4.54   5.56    4   56   10  41.9  42.3 1008.2 -9.9 -9.999 -99.9 -99.99 -9.99
2019/12/14 02:06 EST    4.39   5.39    3  107   11  42.3  42.3 1008.1 -9.9 -9.999 -99.9 -99.99 -9.99
2019/12/14 02:12 EST    4.24   5.21    3  183   12  42.4  42.3 1007.8 -9.9 -9.999 -99.9 -99.99 -9.99
2019/12/14 02:18 EST    4.09   5.08    4   37   10  42.4  42.3 1007.4 -9.9 -9.999 -99.9 -99.99 -9.99
2019/12/14 02:24 EST    3.94   4.99    4   60   10  42.6  42.3 1007.1 -9.9 -9.999 -99.9 -99.99 -9.99
2019/12/14 02:30 EST    3.78   4.89    4   62   11  42.8  42.3 1006.9 -9.9 -9.999 -99.9 -99.99 -9.99
2019/12/14 02:36 EST    3.62   4.81    4   54   10  42.8  42.3 1006.7 -9.9 -9.999 -99.9 -99.99 -9.99
2019/12/14 02:42 EST    3.47   4.70    4   71   11  42.8  42.3 1006.4 -9.9 -9.999 -99.9 -99.99 -9.99
2019/12/14 02:48 EST    3.31   4.60    4   62    9  43.0  42.3 1005.9 -9.9 -9.999 -99.9 -99.99 -9.99
2019/12/14 02:54 EST    3.16   4.48    5   52   13  43.0  42.3 1005.5 -9.9 -9.999 -99.9 -99.99 -9.99
2019/12/14 03:00 EST    3.01   4.35    3   53   12  43.2  42.3 1005.3 -9.9 -9.999 -99.9 -99.99 -9.99
2019/12/14 03:06 EST    2.85   4.25    4   56   11  43.2  42.3 1005.0 -9.9 -9.999 -99.9 -99.99 -9.99
2019/12/14 03:12 EST    2.71   4.13    5   62   12  43.0  42.3 1004.9 -9.9 -9.999 -99.9 -99.99 -9.99
2019/12/14 03:18 EST    2.56   4.01    3   69   12  43.0  42.3 1004.9 -9.9 -9.999 -99.9 -99.99 -9.99
2019/12/14 03:24 EST    2.42   3.87    5   50   11  43.2  42.3 1004.7 -9.9 -9.999 -99.9 -99.99 -9.99
2019/12/14 03:30 EST    2.28   3.75    6   45   11  43.2  42.3 1004.7 -9.9 -9.999 -99.9 -99.99 -9.99
2019/12/14 03:36 EST    2.14   3.65    3   34   11  43.2  42.3 1004.3 -9.9 -9.999 -99.9 -99.99 -9.99
2019/12/14 03:42 EST    2.01   3.56    4   53    9  43.2  42.3 1003.9 -9.9 -9.999 -99.9 -99.99 -9.99
2019/12/14 03:48 EST    1.88   3.50    3   65    8  43.3  42.3 1003.8 -9.9 -9.999 -99.9 -99.99 -9.99
2019/12/14 03:54 EST    1.75   3.45    4   64   11  43.3  42.3 1003.5 -9.9 -9.999 -99.9 -99.99 -9.99
2019/12/14 04:00 EST    1.63   3.38    4   96    8  43.5  42.3 1003.5 -9.9 -9.999 -99.9 -99.99 -9.99
2019/12/14 04:06 EST    1.51   3.30    7   39   11  43.5  42.3 1003.2 -9.9 -9.999 -99.9 -99.99 -9.99
2019/12/14 04:12 EST    1.39   3.21    7   43   14  43.3  42.3 1003.2 -9.9 -9.999 -99.9 -99.99 -9.99
2019/12/14 04:18 EST    1.28   3.12    5   55   10  43.3  42.3 1003.0 -9.9 -9.999 -99.9 -99.99 -9.99
2019/12/14 04:24 EST    1.18   3.02    7   71   12  43.3  42.3 1002.9 -9.9 -9.999 -99.9 -99.99 -9.99
2019/12/14 04:30 EST    1.07   2.92    5   49    9  43.3  42.3 1002.8 -9.9 -9.999 -99.9 -99.99 -9.99
2019/12/14 04:36 EST    0.98   2.81    5   62    9  43.3  42.3 1002.6 -9.9 -9.999 -99.9 -99.99 -9.99
2019/12/14 04:42 EST    0.88   2.70    5   62   12  43.5  42.3 1002.3 -9.9 -9.999 -99.9 -99.99 -9.99
2019/12/14 04:48 EST    0.79   2.60    3   59    9  43.5  42.3 1002.2 -9.9 -9.999 -99.9 -99.99 -9.99
2019/12/14 04:54 EST    0.71   2.53    4   53    9  43.5  42.3 1002.2 -9.9 -9.999 -99.9 -99.99 -9.99
2019/12/14 05:00 EST    0.63   2.45    4   46   10  43.5  42.3 1002.1 -9.9 -9.999 -99.9 -99.99 -9.99
2019/12/14 05:06 EST    0.55   2.38    5   54   11  43.5  42.3 1001.8 -9.9 -9.999 -99.9 -99.99 -9.99
2019/12/14 05:12 EST    0.48   2.30    6   52   11  43.3  42.3 1001.7 -9.9 -9.999 -99.9 -99.99 -9.99
2019/12/14 05:18 EST    0.42   2.23    6   49   12  43.3  42.3 1001.5 -9.9 -9.999 -99.9 -99.99 -9.99
2019/12/14 05:24 EST    0.36   2.22    4   40   10  43.3  42.3 1001.5 -9.9 -9.999 -99.9 -99.99 -9.99
2019/12/14 05:30 EST    0.30   2.21    4   45   10  43.3  42.3 1001.4 -9.9 -9.999 -99.9 -99.99 -9.99
2019/12/14 05:36 EST    0.26   2.20    4   47    9  43.3  42.3 1001.2 -9.9 -9.999 -99.9 -99.99 -9.99
2019/12/14 05:42 EST    0.22   2.17    3   60   11  43.5  42.3 1001.0 -9.9 -9.999 -99.9 -99.99 -9.99
2019/12/14 05:48 EST    0.19   2.12    5   51    9  43.5  42.3 1000.8 -9.9 -9.999 -99.9 -99.99 -9.99
2019/12/14 05:54 EST    0.16   2.10    5   41   11  43.7  42.3 1000.7 -9.9 -9.999 -99.9 -99.99 -9.99
2019/12/14 06:00 EST    0.15   2.04    4   33   11  43.7  42.3 1000.7 -9.9 -9.999 -99.9 -99.99 -9.99
2019/12/14 06:06 EST    0.14   2.01    5   43   11  43.7  42.3 1000.4 -9.9 -9.999 -99.9 -99.99 -9.99
2019/12/14 06:12 EST    0.14   1.97    5   34    8  43.9  42.3 1000.3 -9.9 -9.999 -99.9 -99.99 -9.99
2019/12/14 06:18 EST    0.15   1.93    5   42    9  43.7  42.3 1000.1 -9.9 -9.999 -99.9 -99.99 -9.99
2019/12/14 06:24 EST    0.17   1.92    5   54    9  43.7  42.3 1000.0 -9.9 -9.999 -99.9 -99.99 -9.99
2019/12/14 06:30 EST    0.19   1.95    3   50    9  43.7  42.3  999.9 -9.9 -9.999 -99.9 -99.99 -9.99
2019/12/14 06:36 EST    0.23   1.99    3   37    9  43.7  42.3  999.8 -9.9 -9.999 -99.9 -99.99 -9.99
2019/12/14 06:42 EST    0.28   2.05    3   61   12  43.9  42.3  999.8 -9.9 -9.999 -99.9 -99.99 -9.99
2019/12/14 06:48 EST    0.34   2.14    6   48   12  43.7  42.3  999.7 -9.9 -9.999 -99.9 -99.99 -9.99
2019/12/14 06:54 EST    0.40   2.26    7   47   13  43.5  42.3  999.6 -9.9 -9.999 -99.9 -99.99 -9.99
2019/12/14 07:00 EST    0.48   2.39    3   74   12  43.7  42.3  999.5 -9.9 -9.999 -99.9 -99.99 -9.99
2019/12/14 07:06 EST    0.57   2.49    8   65   13  43.3  42.3  999.4 -9.9 -9.999 -99.9 -99.99 -9.99
2019/12/14 07:12 EST    0.66   2.60    4   52   12  43.3  42.3  999.3 -9.9 -9.999 -99.9 -99.99 -9.99
2019/12/14 07:18 EST    0.77   2.67    6   55   12  43.5  42.3  999.2 -9.9 -9.999 -99.9 -99.99 -9.99
2019/12/14 07:24 EST    0.88   2.74    4   57    9  43.5  42.3  999.1 -9.9 -9.999 -99.9 -99.99 -9.99
2019/12/14 07:30 EST    1.00   2.81    5   72    9  43.5  42.3  999.0 -9.9 -9.999 -99.9 -99.99 -9.99
2019/12/14 07:36 EST    1.14   2.89    5   61    9  43.5  42.3  998.9 -9.9 -9.999 -99.9 -99.99 -9.99
2019/12/14 07:42 EST    1.27   3.00    4   78   11  43.5  42.3  998.8 -9.9 -9.999 -99.9 -99.99 -9.99
2019/12/14 07:48 EST    1.42   3.11    4   61   10  43.5  42.3  998.7 -9.9 -9.999 -99.9 -99.99 -9.99
2019/12/14 07:54 EST    1.57   3.23    4   72   10  43.5  42.3  998.5 -9.9 -9.999 -99.9 -99.99 -9.99
2019/12/14 08:00 EST    1.73   3.39    5   72   11  43.5  42.3  998.4 -9.9 -9.999 -99.9 -99.99 -9.99
2019/12/14 08:06 EST    1.89   3.56    3   64    9  43.5  42.3  998.5 -9.9 -9.999 -99.9 -99.99 -9.99
2019/12/14 08:12 EST    2.06   3.73    3   71    7  43.7  42.3  998.4 -9.9 -9.999 -99.9 -99.99 -9.99
2019/12/14 08:18 EST    2.23   3.90    3   68    8  43.7  42.3  998.4 -9.9 -9.999 -99.9 -99.99 -9.99
2019/12/14 08:24 EST    2.40   4.07    2   43    6  43.7  42.3  998.3 -9.9 -9.999 -99.9 -99.99 -9.99
2019/12/14 08:30 EST    2.57   4.24    4   33   10  43.7  42.3  998.1 -9.9 -9.999 -99.9 -99.99 -9.99
2019/12/14 08:36 EST    2.75   4.39    4   38    9  43.7  42.3  997.8 -9.9 -9.999 -99.9 -99.99 -9.99
2019/12/14 08:42 EST    2.93   4.54    4   56    8  43.7  42.3  997.7 -9.9 -9.999 -99.9 -99.99 -9.99
2019/12/14 08:48 EST    3.10   4.68    2   46    9  43.7  42.3  997.7 -9.9 -9.999 -99.9 -99.99 -9.99
2019/12/14 08:54 EST    3.28   4.83    3   72    7  43.9  42.3  997.4 -9.9 -9.999 -99.9 -99.99 -9.99
2019/12/14 09:00 EST    3.46   4.98    4   51    9  43.9  42.3  997.3 -9.9 -9.999 -99.9 -99.99 -9.99
2019/12/14 09:06 EST    3.63   5.12    2   47    9  43.9  42.3  997.2 -9.9 -9.999 -99.9 -99.99 -9.99
2019/12/14 09:12 EST    3.80   5.27    3   26    9  43.9  42.3  997.2 -9.9 -9.999 -99.9 -99.99 -9.99
2019/12/14 09:18 EST    3.97   5.42    3   45    9  43.9  42.3  997.1 -9.9 -9.999 -99.9 -99.99 -9.99
2019/12/14 09:24 EST    4.14   5.56    4   50    9  43.9  42.3  997.0 -9.9 -9.999 -99.9 -99.99 -9.99
2019/12/14 09:30 EST    4.30   5.71    6   52   10  43.9  42.3  996.7 -9.9 -9.999 -99.9 -99.99 -9.99
2019/12/14 09:36 EST    4.46   5.86    4   48    8  43.9  42.3  996.6 -9.9 -9.999 -99.9 -99.99 -9.99
2019/12/14 09:42 EST    4.61   5.98    4   61    9  43.9  42.3  996.7 -9.9 -9.999 -99.9 -99.99 -9.99
2019/12/14 09:48 EST    4.76   6.09    4   58   10  43.9  42.3  996.6 -9.9 -9.999 -99.9 -99.99 -9.99
2019/12/14 09:54 EST    4.91   6.19    3   58    7  44.1  42.3  996.8 -9.9 -9.999 -99.9 -99.99 -9.99
2019/12/14 10:00 EST    5.05   6.31    4   51    7  44.1  42.3  997.0 -9.9 -9.999 -99.9 -99.99 -9.99
2019/12/14 10:06 EST    5.19   6.44    4   52    9  44.1  42.3  996.9 -9.9 -9.999 -99.9 -99.99 -9.99
2019/12/14 10:12 EST    5.32   6.58    3   45    7  44.1  42.3  996.8 -9.9 -9.999 -99.9 -99.99 -9.99
2019/12/14 10:18 EST    5.45   6.70    2   34    7  44.2  42.3  996.6 -9.9 -9.999 -99.9 -99.99 -9.99
2019/12/14 10:24 EST    5.57   6.81    3   52    6  44.2  42.3  996.5 -9.9 -9.999 -99.9 -99.99 -9.99
2019/12/14 10:30 EST    5.69   6.92    3   65    6  44.4  42.3  996.3 -9.9 -9.999 -99.9 -99.99 -9.99
2019/12/14 10:36 EST    5.81   7.02    3   60    7  44.4  42.3  996.0 -9.9 -9.999 -99.9 -99.99 -9.99
2019/12/14 10:42 EST    5.92   7.13    3   46    7  44.6  42.3  995.8 -9.9 -9.999 -99.9 -99.99 -9.99
2019/12/14 10:48 EST    6.02   7.23    4   58    6  44.8  42.4  995.8 -9.9 -9.999 -99.9 -99.99 -9.99
2019/12/14 10:54 EST    6.12   7.33    2   22    6  44.8  42.4  995.6 -9.9 -9.999 -99.9 -99.99 -9.99
2019/12/14 11:00 EST    6.21   7.43    2   90    6  44.8  42.4  995.5 -9.9 -9.999 -99.9 -99.99 -9.99
2019/12/14 11:06 EST    6.30   7.55    3   31    5  45.0  42.4  995.3 -9.9 -9.999 -99.9 -99.99 -9.99
2019/12/14 11:12 EST    6.39   7.65    3   44    5  45.1  42.4  995.1 -9.9 -9.999 -99.9 -99.99 -9.99
2019/12/14 11:18 EST    6.47   7.74    2   65    6  45.3  42.4  994.9 -9.9 -9.999 -99.9 -99.99 -9.99
2019/12/14 11:24 EST    6.54   7.82    2   24    7  45.1  42.4  995.0 -9.9 -9.999 -99.9 -99.99 -9.99
2019/12/14 11:30 EST    6.61   7.89    2   52    5  45.3  42.4  994.7 -9.9 -9.999 -99.9 -99.99 -9.99
2019/12/14 11:36 EST    6.67   7.96    2   57    6  45.7  42.4  994.3 -9.9 -9.999 -99.9 -99.99 -9.99
2019/12/14 11:42 EST    6.72   8.04    1  125    4  45.5  42.4  994.1 -9.9 -9.999 -99.9 -99.99 -9.99
2019/12/14 11:48 EST    6.77   8.09    2   91    5  45.7  42.4  993.7 -9.9 -9.999 -99.9 -99.99 -9.99
2019/12/14 11:54 EST    6.81   8.13    1  103    5  45.9  42.4  993.6 -9.9 -9.999 -99.9 -99.99 -9.99
2019/12/14 12:00 EST    6.85   8.14    2   36    5  45.9  42.4  993.5 -9.9 -9.999 -99.9 -99.99 -9.99
2019/12/14 12:06 EST    6.87   8.14    3   50    6  46.2  42.4  993.3 -9.9 -9.999 -99.9 -99.99 -9.99
2019/12/14 12:12 EST    6.89   8.16    3   49    7  46.2  42.4  993.1 -9.9 -9.999 -99.9 -99.99 -9.99
2019/12/14 12:18 EST    6.90   8.17    3   59    7  46.4  42.4  992.8 -9.9 -9.999 -99.9 -99.99 -9.99
2019/12/14 12:24 EST    6.90   8.18    4   60    7  46.4  42.4  992.7 -9.9 -9.999 -99.9 -99.99 -9.99
2019/12/14 12:30 EST    6.89   8.18    4   50    8  46.4  42.4  992.4 -9.9 -9.999 -99.9 -99.99 -9.99
2019/12/14 12:36 EST    6.88   8.17    4   44    7  46.6  42.4  992.6 -9.9 -9.999 -99.9 -99.99 -9.99
2019/12/14 12:42 EST    6.85   8.13    3   46    5  46.8  42.4  992.4 -9.9 -9.999 -99.9 -99.99 -9.99
2019/12/14 12:48 EST    6.82   8.08    1   49    6  46.8  42.6  992.1 -9.9 -9.999 -99.9 -99.99 -9.99
2019/12/14 12:54 EST    6.77   8.02    4   51    7  46.9  42.6  991.9 -9.9 -9.999 -99.9 -99.99 -9.99
2019/12/14 13:00 EST    6.71   7.95    4   56    7  46.9  42.6  991.7 -9.9 -9.999 -99.9 -99.99 -9.99
2019/12/14 13:06 EST    6.65   7.87    4   48    7  47.1  42.6  991.6 -9.9 -9.999 -99.9 -99.99 -9.99
2019/12/14 13:12 EST    6.58   7.77    3   39    7  47.1  42.6  991.5 -9.9 -9.999 -99.9 -99.99 -9.99
2019/12/14 13:18 EST    6.49   7.65    3   19    6  47.1  42.6  991.4 -9.9 -9.999 -99.9 -99.99 -9.99
2019/12/14 13:24 EST    6.40   7.52    4   39    6  47.3  42.6  991.1 -9.9 -9.999 -99.9 -99.99 -9.99
2019/12/14 13:30 EST    6.30   7.41    5   62    8  47.5  42.6  990.9 -9.9 -9.999 -99.9 -99.99 -9.99
2019/12/14 13:36 EST    6.18   7.30    4   39    8  47.5  42.6  990.7 -9.9 -9.999 -99.9 -99.99 -9.99
2019/12/14 13:42 EST    6.06   7.18    4   39    8  47.5  42.6  990.6 -9.9 -9.999 -99.9 -99.99 -9.99
2019/12/14 13:48 EST    5.94   7.05    5   42    7  47.5  42.6  990.6 -9.9 -9.999 -99.9 -99.99 -9.99
2019/12/14 13:54 EST    5.80   6.92    1   22    7  47.7  42.6  990.7 -9.9 -9.999 -99.9 -99.99 -9.99
2019/12/14 14:00 EST    5.66   6.78    2   48    4  47.7  42.6  990.6 -9.9 -9.999 -99.9 -99.99 -9.99
2019/12/14 14:06 EST    5.51   6.63    3   29    5  47.8  42.6  990.5 -9.9 -9.999 -99.9 -99.99 -9.99
2019/12/14 14:12 EST    5.35   6.51    3    4    5  47.5  42.6  990.2 -9.9 -9.999 -99.9 -99.99 -9.99
2019/12/14 14:18 EST    5.20 -99.99 -999 -999 -999 -99.9 -99.9 -999.9 -9.9 -9.999 -99.9 -99.99 -9.99